UAL617 KSFO-EDDM
Flight info
| Callsign | UAL617 |
|---|---|
| Flight time | N/A |
| Altitude | 31000 |
| Route | SNTNA2 ORRCA DCT FMG J94 LLC DCT TWF DCT IDA DCT DNW DCT DIK/N0491F330 DCT FARID DCT 50N088W DCT YMO DCT PUVOK/N0491F350 DCT AVUTI/M084F350 DCT 59N050W 60N040W 60N030W 59N020W DCT GOMUP/N0481F350 DCT GINGA/N0480F370 DCT EMGAT DCT ERKIT N110 DOLAS DCT NAVPI DCT OTMEC DCT DODEN/N0483F330 DCT TABUM DCT BOMBI T104 HAREM/N0446F270 T104 ROKIL ROKIL1A |
| Aircraft | B772/H-SDE2E3FGHIJ5LORVWXY/A1EDE9 |
Departure
| Time | 2026-05-06 03:23 |
|---|---|
| Airport | San Francisco International Airport (KSFO) |
Arrival
| Time | N/A |
|---|---|
| Airport | Munich Airport (EDDM) |
| Time | Latitude | Longitude | Altitude | Speed | Heading |
|---|---|---|---|---|---|
| 2026-05-06 02:25 | 37.61158 | -122.38935 | 36 ft | 0 kts | 298° |
| 2026-05-06 03:06 | 37.61155 | -122.38929 | 36 ft | 1 kts | 298° |
| 2026-05-06 03:06 | 37.61147 | -122.38910 | 36 ft | 3 kts | 298° |
| 2026-05-06 03:06 | 37.61138 | -122.38883 | 37 ft | 3 kts | 284° |
| 2026-05-06 03:06 | 37.61137 | -122.38858 | 37 ft | 3 kts | 256° |
| 2026-05-06 03:07 | 37.61145 | -122.38836 | 38 ft | 3 kts | 227° |
| 2026-05-06 03:07 | 37.61162 | -122.38818 | 38 ft | 3 kts | 205° |
| 2026-05-06 03:07 | 37.61172 | -122.38814 | 38 ft | 0 kts | 203° |
| 2026-05-06 03:07 | 37.61160 | -122.38820 | 38 ft | 3 kts | 204° |
| 2026-05-06 03:08 | 37.61140 | -122.38832 | 38 ft | 1 kts | 207° |
| 2026-05-06 03:08 | 37.61140 | -122.38833 | 38 ft | 0 kts | 207° |
| 2026-05-06 03:11 | 37.61137 | -122.38834 | 38 ft | 1 kts | 207° |
| 2026-05-06 03:11 | 37.61111 | -122.38851 | 38 ft | 7 kts | 207° |
| 2026-05-06 03:12 | 37.61046 | -122.38894 | 37 ft | 11 kts | 207° |
| 2026-05-06 03:12 | 37.60973 | -122.38917 | 36 ft | 11 kts | 160° |
| 2026-05-06 03:12 | 37.60923 | -122.38854 | 36 ft | 10 kts | 120° |
| 2026-05-06 03:12 | 37.60892 | -122.38783 | 37 ft | 8 kts | 118° |
| 2026-05-06 03:13 | 37.60866 | -122.38721 | 38 ft | 7 kts | 117° |
| 2026-05-06 03:13 | 37.60838 | -122.38654 | 38 ft | 10 kts | 117° |
| 2026-05-06 03:13 | 37.60805 | -122.38563 | 38 ft | 12 kts | 103° |
| 2026-05-06 03:13 | 37.60838 | -122.38500 | 38 ft | 9 kts | 7° |
| 2026-05-06 03:14 | 37.60897 | -122.38492 | 38 ft | 9 kts | 12° |
| 2026-05-06 03:14 | 37.60947 | -122.38459 | 38 ft | 8 kts | 35° |
| 2026-05-06 03:14 | 37.60997 | -122.38413 | 38 ft | 9 kts | 37° |
| 2026-05-06 03:14 | 37.61052 | -122.38367 | 38 ft | 10 kts | 29° |
| 2026-05-06 03:15 | 37.61119 | -122.38323 | 38 ft | 12 kts | 28° |
| 2026-05-06 03:15 | 37.61204 | -122.38267 | 38 ft | 15 kts | 28° |
| 2026-05-06 03:15 | 37.61287 | -122.38211 | 38 ft | 13 kts | 28° |
| 2026-05-06 03:15 | 37.61364 | -122.38161 | 38 ft | 12 kts | 28° |
| 2026-05-06 03:16 | 37.61398 | -122.38077 | 38 ft | 11 kts | 104° |
| 2026-05-06 03:16 | 37.61365 | -122.37991 | 38 ft | 11 kts | 118° |
| 2026-05-06 03:16 | 37.61326 | -122.37900 | 36 ft | 12 kts | 117° |
| 2026-05-06 03:16 | 37.61286 | -122.37804 | 34 ft | 13 kts | 118° |
| 2026-05-06 03:17 | 37.61240 | -122.37692 | 30 ft | 15 kts | 112° |
| 2026-05-06 03:17 | 37.61237 | -122.37560 | 26 ft | 16 kts | 71° |
| 2026-05-06 03:17 | 37.61315 | -122.37457 | 24 ft | 16 kts | 30° |
| 2026-05-06 03:17 | 37.61412 | -122.37390 | 23 ft | 16 kts | 28° |
| 2026-05-06 03:18 | 37.61512 | -122.37324 | 22 ft | 16 kts | 28° |
| 2026-05-06 03:18 | 37.61590 | -122.37265 | 21 ft | 10 kts | 55° |
| 2026-05-06 03:18 | 37.61581 | -122.37186 | 20 ft | 10 kts | 116° |
| 2026-05-06 03:18 | 37.61543 | -122.37092 | 18 ft | 13 kts | 118° |
| 2026-05-06 03:19 | 37.61499 | -122.36988 | 18 ft | 14 kts | 118° |
| 2026-05-06 03:19 | 37.61440 | -122.36883 | 18 ft | 16 kts | 133° |
| 2026-05-06 03:19 | 37.61366 | -122.36781 | 18 ft | 15 kts | 122° |
| 2026-05-06 03:19 | 37.61319 | -122.36670 | 18 ft | 14 kts | 118° |
| 2026-05-06 03:20 | 37.61223 | -122.36441 | 16 ft | 16 kts | 117° |
| 2026-05-06 03:20 | 37.61169 | -122.36311 | 15 ft | 17 kts | 117° |
| 2026-05-06 03:20 | 37.61113 | -122.36181 | 15 ft | 17 kts | 119° |
| 2026-05-06 03:21 | 37.61058 | -122.36047 | 15 ft | 16 kts | 113° |
| 2026-05-06 03:21 | 37.61079 | -122.35921 | 15 ft | 14 kts | 45° |
| 2026-05-06 03:21 | 37.61162 | -122.35870 | 15 ft | 12 kts | 354° |
| 2026-05-06 03:21 | 37.61198 | -122.35906 | 15 ft | 0 kts | 300° |
| 2026-05-06 03:22 | 37.61221 | -122.35957 | 15 ft | 27 kts | 300° |
| 2026-05-06 03:22 | 37.61372 | -122.36317 | 18 ft | 78 kts | 297° |
| 2026-05-06 03:22 | 37.61669 | -122.37026 | 19 ft | 127 kts | 298° |
| 2026-05-06 03:22 | 37.62095 | -122.38040 | 40 ft | 167 kts | 296° |
| 2026-05-06 03:23 | 37.62619 | -122.39309 | 423 ft | 178 kts | 295° |
| 2026-05-06 03:23 | 37.63171 | -122.40623 | 1134 ft | 178 kts | 298° |
| 2026-05-06 03:23 | 37.63757 | -122.41938 | 1479 ft | 183 kts | 300° |
| 2026-05-06 03:23 | 37.64360 | -122.43252 | 1747 ft | 188 kts | 299° |
| 2026-05-06 03:24 | 37.64973 | -122.44661 | 1964 ft | 199 kts | 298° |
| 2026-05-06 03:24 | 37.65640 | -122.46220 | 2132 ft | 212 kts | 299° |
| 2026-05-06 03:24 | 37.66344 | -122.47877 | 2342 ft | 228 kts | 299° |
| 2026-05-06 03:24 | 37.67089 | -122.49638 | 2743 ft | 237 kts | 299° |
| 2026-05-06 03:25 | 37.67953 | -122.51293 | 3140 ft | 245 kts | 316° |
| 2026-05-06 03:25 | 37.69305 | -122.52460 | 3587 ft | 250 kts | 338° |
| 2026-05-06 03:25 | 37.70857 | -122.52834 | 3986 ft | 256 kts | 2° |
| 2026-05-06 03:25 | 37.72469 | -122.52337 | 4504 ft | 259 kts | 26° |
| 2026-05-06 03:26 | 37.73781 | -122.51073 | 5000 ft | 263 kts | 46° |
| 2026-05-06 03:26 | 37.74978 | -122.49458 | 5640 ft | 263 kts | 45° |
| 2026-05-06 03:26 | 37.76128 | -122.47897 | 6243 ft | 262 kts | 45° |
| 2026-05-06 03:26 | 37.77339 | -122.46267 | 6809 ft | 263 kts | 45° |
| 2026-05-06 03:27 | 37.78552 | -122.44641 | 7397 ft | 264 kts | 45° |
| 2026-05-06 03:27 | 37.79767 | -122.43012 | 7964 ft | 265 kts | 45° |
| 2026-05-06 03:27 | 37.80968 | -122.41401 | 8530 ft | 265 kts | 45° |
| 2026-05-06 03:27 | 37.82207 | -122.39737 | 9113 ft | 265 kts | 46° |
| 2026-05-06 03:28 | 37.83445 | -122.38075 | 9678 ft | 266 kts | 45° |
| 2026-05-06 03:28 | 37.84695 | -122.36395 | 10192 ft | 269 kts | 45° |
| 2026-05-06 03:28 | 37.85961 | -122.34695 | 10383 ft | 284 kts | 46° |
| 2026-05-06 03:28 | 37.87300 | -122.32896 | 10540 ft | 301 kts | 46° |
| 2026-05-06 03:29 | 37.88706 | -122.31005 | 10714 ft | 316 kts | 46° |
| 2026-05-06 03:29 | 37.90289 | -122.28875 | 10926 ft | 333 kts | 46° |
| 2026-05-06 03:29 | 37.91882 | -122.26729 | 11143 ft | 347 kts | 46° |
| 2026-05-06 03:29 | 37.93491 | -122.24561 | 11521 ft | 356 kts | 46° |
| 2026-05-06 03:30 | 37.95161 | -122.22306 | 12120 ft | 359 kts | 46° |
| 2026-05-06 03:30 | 37.96717 | -122.19999 | 12774 ft | 359 kts | 50° |
| 2026-05-06 03:30 | 37.98284 | -122.17558 | 13348 ft | 362 kts | 50° |
| 2026-05-06 03:30 | 37.99995 | -122.14887 | 13895 ft | 367 kts | 50° |
| 2026-05-06 03:31 | 38.01699 | -122.12221 | 14457 ft | 371 kts | 50° |
| 2026-05-06 03:31 | 38.03413 | -122.09539 | 15076 ft | 373 kts | 50° |
| 2026-05-06 03:31 | 38.05134 | -122.06844 | 15645 ft | 376 kts | 50° |
| 2026-05-06 03:31 | 38.06874 | -122.04115 | 16218 ft | 378 kts | 50° |
| 2026-05-06 03:32 | 38.08609 | -122.01392 | 16730 ft | 381 kts | 50° |
| 2026-05-06 03:32 | 38.10318 | -121.98709 | 17232 ft | 384 kts | 50° |
| 2026-05-06 03:32 | 38.12072 | -121.95953 | 17744 ft | 386 kts | 50° |
| 2026-05-06 03:32 | 38.13865 | -121.93132 | 18212 ft | 390 kts | 50° |
| 2026-05-06 03:33 | 38.15641 | -121.90338 | 18701 ft | 392 kts | 50° |
| 2026-05-06 03:33 | 38.17417 | -121.87537 | 19233 ft | 393 kts | 50° |
| 2026-05-06 03:33 | 38.19179 | -121.84759 | 19716 ft | 395 kts | 49° |
| 2026-05-06 03:33 | 38.20951 | -121.81963 | 20151 ft | 397 kts | 49° |
| 2026-05-06 03:34 | 38.22726 | -121.79159 | 20595 ft | 399 kts | 50° |
| 2026-05-06 03:34 | 38.24546 | -121.76281 | 21042 ft | 401 kts | 50° |
| 2026-05-06 03:34 | 38.26328 | -121.73461 | 21439 ft | 403 kts | 49° |
| 2026-05-06 03:34 | 38.28103 | -121.70650 | 21864 ft | 405 kts | 49° |
| 2026-05-06 03:35 | 38.29928 | -121.67756 | 22296 ft | 406 kts | 49° |
| 2026-05-06 03:35 | 38.31724 | -121.64906 | 22700 ft | 407 kts | 49° |
| 2026-05-06 03:35 | 38.33546 | -121.62014 | 23041 ft | 410 kts | 49° |
| 2026-05-06 03:35 | 38.35395 | -121.59074 | 23439 ft | 412 kts | 49° |
| 2026-05-06 03:36 | 38.37260 | -121.56107 | 23805 ft | 414 kts | 49° |
| 2026-05-06 03:36 | 38.39157 | -121.53086 | 24183 ft | 416 kts | 49° |
| 2026-05-06 03:36 | 38.41019 | -121.50118 | 24572 ft | 417 kts | 49° |
| 2026-05-06 03:36 | 38.42924 | -121.47079 | 24906 ft | 419 kts | 49° |
| 2026-05-06 03:37 | 38.44855 | -121.43996 | 25220 ft | 422 kts | 49° |
| 2026-05-06 03:37 | 38.46768 | -121.40938 | 25512 ft | 425 kts | 49° |
| 2026-05-06 03:37 | 38.48709 | -121.37833 | 25845 ft | 427 kts | 49° |
| 2026-05-06 03:37 | 38.50671 | -121.34690 | 26231 ft | 428 kts | 49° |
| 2026-05-06 03:38 | 38.52559 | -121.31664 | 26582 ft | 429 kts | 49° |
| 2026-05-06 03:38 | 38.54548 | -121.28473 | 26922 ft | 431 kts | 49° |
| 2026-05-06 03:38 | 38.56560 | -121.25241 | 27238 ft | 434 kts | 49° |
| 2026-05-06 03:38 | 38.58535 | -121.22066 | 27546 ft | 436 kts | 50° |
| 2026-05-06 03:39 | 38.60463 | -121.18963 | 27863 ft | 437 kts | 49° |
| 2026-05-06 03:39 | 38.62498 | -121.15685 | 28199 ft | 439 kts | 49° |
| 2026-05-06 03:39 | 38.64508 | -121.12443 | 28522 ft | 440 kts | 49° |
| 2026-05-06 03:39 | 38.66477 | -121.09265 | 28795 ft | 442 kts | 50° |
| 2026-05-06 03:40 | 38.68473 | -121.06040 | 29067 ft | 445 kts | 49° |
| 2026-05-06 03:40 | 38.70561 | -121.02663 | 29304 ft | 448 kts | 50° |
| 2026-05-06 03:40 | 38.72612 | -120.99342 | 29584 ft | 449 kts | 49° |
| 2026-05-06 03:40 | 38.74654 | -120.96033 | 29920 ft | 450 kts | 49° |
| 2026-05-06 03:41 | 38.76689 | -120.92731 | 30167 ft | 452 kts | 50° |
| 2026-05-06 03:41 | 38.78746 | -120.89390 | 30498 ft | 451 kts | 50° |
| 2026-05-06 03:41 | 38.80824 | -120.86010 | 30964 ft | 448 kts | 50° |
| 2026-05-06 03:41 | 38.82824 | -120.82755 | 31021 ft | 451 kts | 49° |
| 2026-05-06 03:42 | 38.86783 | -120.76301 | 31025 ft | 446 kts | 49° |
| 2026-05-06 03:42 | 38.90745 | -120.69828 | 30999 ft | 446 kts | 49° |
| 2026-05-06 03:43 | 38.94810 | -120.63175 | 30964 ft | 448 kts | 49° |
| 2026-05-06 03:43 | 38.98854 | -120.56542 | 30992 ft | 446 kts | 49° |
| 2026-05-06 03:44 | 39.02772 | -120.50102 | 31018 ft | 446 kts | 49° |
| 2026-05-06 03:44 | 39.06746 | -120.43559 | 31012 ft | 447 kts | 49° |
| 2026-05-06 03:45 | 39.10545 | -120.37289 | 31075 ft | 445 kts | 49° |
| 2026-05-06 03:45 | 39.14388 | -120.30935 | 31086 ft | 447 kts | 50° |
| 2026-05-06 03:46 | 39.18314 | -120.24430 | 31089 ft | 445 kts | 50° |
| 2026-05-06 03:46 | 39.22351 | -120.17728 | 31074 ft | 446 kts | 50° |
| 2026-05-06 03:47 | 39.26271 | -120.11207 | 31077 ft | 446 kts | 50° |
| 2026-05-06 03:47 | 39.30195 | -120.04665 | 31054 ft | 445 kts | 50° |
| 2026-05-06 03:48 | 39.34125 | -119.98099 | 31058 ft | 444 kts | 50° |
| 2026-05-06 03:48 | 39.38025 | -119.91572 | 31034 ft | 447 kts | 50° |
| 2026-05-06 03:49 | 39.42012 | -119.84882 | 31020 ft | 444 kts | 50° |
| 2026-05-06 03:49 | 39.45807 | -119.78505 | 30971 ft | 445 kts | 50° |
| 2026-05-06 03:50 | 39.49340 | -119.72555 | 30977 ft | 446 kts | 50° |
| 2026-05-06 03:50 | 39.53236 | -119.65981 | 30968 ft | 445 kts | 50° |
| 2026-05-06 03:51 | 39.57164 | -119.59337 | 30980 ft | 443 kts | 50° |
| 2026-05-06 03:51 | 39.61021 | -119.52801 | 30970 ft | 443 kts | 50° |
| 2026-05-06 03:52 | 39.64825 | -119.46343 | 31081 ft | 443 kts | 50° |
| 2026-05-06 03:52 | 39.68640 | -119.39852 | 31020 ft | 446 kts | 50° |
| 2026-05-06 03:53 | 39.72420 | -119.33406 | 31057 ft | 442 kts | 50° |
| 2026-05-06 03:53 | 39.76222 | -119.26912 | 31064 ft | 444 kts | 50° |
| 2026-05-06 03:54 | 39.80047 | -119.20363 | 31054 ft | 443 kts | 50° |
| 2026-05-06 03:54 | 39.83773 | -119.13970 | 31052 ft | 441 kts | 50° |
| 2026-05-06 03:55 | 39.87458 | -119.07636 | 31036 ft | 441 kts | 50° |
| 2026-05-06 03:55 | 39.91171 | -119.01241 | 31026 ft | 444 kts | 50° |
| 2026-05-06 03:56 | 39.94863 | -118.94869 | 31030 ft | 443 kts | 50° |
| 2026-05-06 03:56 | 39.98573 | -118.88452 | 31044 ft | 441 kts | 50° |
| 2026-05-06 03:57 | 40.02256 | -118.82073 | 31014 ft | 445 kts | 50° |
| 2026-05-06 03:57 | 40.05985 | -118.75597 | 30958 ft | 445 kts | 50° |
| 2026-05-06 03:58 | 40.09642 | -118.69233 | 30939 ft | 442 kts | 50° |
| 2026-05-06 03:58 | 40.13379 | -118.62718 | 30957 ft | 445 kts | 50° |
| 2026-05-06 03:59 | 40.17027 | -118.56344 | 30951 ft | 443 kts | 50° |
| 2026-05-06 03:59 | 40.20712 | -118.49892 | 30974 ft | 442 kts | 50° |
| 2026-05-06 04:00 | 40.24317 | -118.43568 | 31007 ft | 444 kts | 50° |
| 2026-05-06 04:00 | 40.28017 | -118.37064 | 31029 ft | 444 kts | 50° |
| 2026-05-06 04:01 | 40.31408 | -118.31091 | 31050 ft | 443 kts | 51° |
| 2026-05-06 04:01 | 40.34946 | -118.24847 | 31046 ft | 443 kts | 50° |
| 2026-05-06 04:02 | 40.38691 | -118.18223 | 31032 ft | 441 kts | 50° |
| 2026-05-06 04:02 | 40.42382 | -118.11681 | 31026 ft | 443 kts | 51° |
| 2026-05-06 04:03 | 40.46093 | -118.05092 | 31017 ft | 444 kts | 51° |
| 2026-05-06 04:03 | 40.49781 | -117.98526 | 31012 ft | 443 kts | 50° |
| 2026-05-06 04:04 | 40.53512 | -117.91872 | 31029 ft | 442 kts | 50° |
| 2026-05-06 04:04 | 40.57190 | -117.85298 | 31019 ft | 443 kts | 50° |
| 2026-05-06 04:05 | 40.60773 | -117.78881 | 31037 ft | 444 kts | 50° |
| 2026-05-06 04:05 | 40.64293 | -117.72564 | 31027 ft | 444 kts | 50° |
| 2026-05-06 04:06 | 40.67994 | -117.65908 | 31016 ft | 443 kts | 50° |
| 2026-05-06 04:06 | 40.71668 | -117.59287 | 31015 ft | 443 kts | 50° |
| 2026-05-06 04:07 | 40.75382 | -117.52579 | 31006 ft | 443 kts | 50° |
| 2026-05-06 04:07 | 40.79042 | -117.45953 | 31019 ft | 443 kts | 50° |
| 2026-05-06 04:08 | 40.82735 | -117.39256 | 31017 ft | 444 kts | 50° |
| 2026-05-06 04:08 | 40.86514 | -117.32385 | 31012 ft | 444 kts | 50° |
| 2026-05-06 04:09 | 40.90211 | -117.25648 | 31000 ft | 443 kts | 50° |
| 2026-05-06 04:09 | 40.93894 | -117.18923 | 31002 ft | 444 kts | 50° |
| 2026-05-06 04:10 | 40.97499 | -117.12327 | 30998 ft | 444 kts | 50° |
| 2026-05-06 04:10 | 41.01163 | -117.05606 | 31004 ft | 442 kts | 50° |
| 2026-05-06 04:11 | 41.04802 | -116.98919 | 31013 ft | 443 kts | 50° |
| 2026-05-06 04:11 | 41.08413 | -116.92268 | 31019 ft | 443 kts | 50° |
| 2026-05-06 04:12 | 41.12013 | -116.85624 | 31043 ft | 444 kts | 50° |
| 2026-05-06 04:12 | 41.15619 | -116.78955 | 31042 ft | 443 kts | 50° |
| 2026-05-06 04:13 | 41.19278 | -116.72170 | 31045 ft | 443 kts | 50° |
| 2026-05-06 04:13 | 41.22886 | -116.65469 | 31049 ft | 444 kts | 50° |
| 2026-05-06 04:14 | 41.26514 | -116.58714 | 31059 ft | 443 kts | 50° |
| 2026-05-06 04:14 | 41.30161 | -116.51908 | 31050 ft | 444 kts | 50° |
| 2026-05-06 04:15 | 41.33796 | -116.45110 | 31050 ft | 443 kts | 50° |
| 2026-05-06 04:15 | 41.37413 | -116.38330 | 31060 ft | 442 kts | 50° |
| 2026-05-06 04:16 | 41.41045 | -116.31506 | 31049 ft | 444 kts | 50° |
| 2026-05-06 04:16 | 41.44624 | -116.24770 | 31053 ft | 444 kts | 50° |
| 2026-05-06 04:17 | 41.48230 | -116.17965 | 31054 ft | 442 kts | 50° |
| 2026-05-06 04:17 | 41.51799 | -116.11217 | 31075 ft | 444 kts | 50° |
| 2026-05-06 04:18 | 41.55410 | -116.04372 | 31080 ft | 444 kts | 50° |
| 2026-05-06 04:18 | 41.58957 | -115.97634 | 31084 ft | 441 kts | 50° |
| 2026-05-06 04:19 | 41.62593 | -115.90713 | 31067 ft | 444 kts | 50° |
| 2026-05-06 04:19 | 41.66150 | -115.83927 | 31055 ft | 443 kts | 50° |
| 2026-05-06 04:20 | 41.69733 | -115.77074 | 31035 ft | 441 kts | 50° |
| 2026-05-06 04:20 | 41.73263 | -115.70309 | 31042 ft | 442 kts | 50° |
| 2026-05-06 04:21 | 41.76866 | -115.63389 | 31036 ft | 443 kts | 50° |
| 2026-05-06 04:21 | 41.80377 | -115.56628 | 31046 ft | 441 kts | 50° |
| 2026-05-06 04:22 | 41.83907 | -115.49818 | 31027 ft | 444 kts | 50° |
| 2026-05-06 04:23 | 41.89232 | -115.39514 | 31019 ft | 444 kts | 49° |
| 2026-05-06 04:23 | 41.92857 | -115.32481 | 31024 ft | 443 kts | 50° |
| 2026-05-06 04:24 | 41.96439 | -115.25514 | 31023 ft | 442 kts | 50° |
| 2026-05-06 04:24 | 41.99955 | -115.18658 | 31033 ft | 443 kts | 50° |
| 2026-05-06 04:25 | 42.03505 | -115.11723 | 31011 ft | 442 kts | 50° |
| 2026-05-06 04:25 | 42.06998 | -115.04882 | 31015 ft | 443 kts | 50° |
| 2026-05-06 04:26 | 42.10550 | -114.97911 | 31011 ft | 444 kts | 50° |
| 2026-05-06 04:26 | 42.14069 | -114.90990 | 31018 ft | 443 kts | 50° |
| 2026-05-06 04:27 | 42.17597 | -114.84030 | 31021 ft | 441 kts | 50° |
| 2026-05-06 04:27 | 42.21103 | -114.77103 | 31022 ft | 444 kts | 50° |
| 2026-05-06 04:28 | 42.24637 | -114.70103 | 30984 ft | 444 kts | 50° |
| 2026-05-06 04:28 | 42.28189 | -114.63051 | 30948 ft | 443 kts | 50° |
| 2026-05-06 04:29 | 42.31691 | -114.56078 | 30896 ft | 442 kts | 49° |
| 2026-05-06 04:29 | 42.35207 | -114.49067 | 30899 ft | 445 kts | 50° |
| 2026-05-06 04:30 | 42.38758 | -114.41969 | 30899 ft | 446 kts | 50° |
| 2026-05-06 04:30 | 42.42256 | -114.34957 | 30890 ft | 444 kts | 50° |
| 2026-05-06 04:31 | 42.45822 | -114.27790 | 30903 ft | 443 kts | 50° |
| 2026-05-06 04:31 | 42.49285 | -114.20821 | 30901 ft | 447 kts | 50° |
| 2026-05-06 04:32 | 42.52841 | -114.13641 | 30958 ft | 443 kts | 50° |
| 2026-05-06 04:32 | 42.56156 | -114.06934 | 30968 ft | 444 kts | 50° |
| 2026-05-06 04:33 | 42.59671 | -113.99808 | 30945 ft | 445 kts | 50° |
| 2026-05-06 04:33 | 42.63077 | -113.92882 | 30925 ft | 444 kts | 50° |
| 2026-05-06 04:34 | 42.66603 | -113.85700 | 30915 ft | 445 kts | 50° |
| 2026-05-06 04:34 | 42.70037 | -113.78685 | 30917 ft | 444 kts | 49° |
| 2026-05-06 04:35 | 42.73607 | -113.71378 | 30930 ft | 445 kts | 49° |
| 2026-05-06 04:35 | 42.77026 | -113.64362 | 30974 ft | 445 kts | 49° |
| 2026-05-06 04:36 | 42.80559 | -113.57093 | 30971 ft | 442 kts | 49° |
| 2026-05-06 04:36 | 42.83941 | -113.50119 | 30981 ft | 443 kts | 49° |
| 2026-05-06 04:37 | 42.87437 | -113.42892 | 30976 ft | 441 kts | 49° |
| 2026-05-06 04:37 | 42.90805 | -113.35913 | 30983 ft | 440 kts | 49° |
| 2026-05-06 04:38 | 42.94244 | -113.28771 | 30983 ft | 441 kts | 49° |
| 2026-05-06 04:38 | 42.97762 | -113.21446 | 30988 ft | 439 kts | 49° |
| 2026-05-06 04:39 | 43.01230 | -113.14211 | 30997 ft | 441 kts | 49° |
| 2026-05-06 04:39 | 43.04536 | -113.07290 | 30997 ft | 435 kts | 49° |
| 2026-05-06 04:40 | 43.07961 | -113.00111 | 31003 ft | 440 kts | 49° |
| 2026-05-06 04:40 | 43.11348 | -112.92992 | 31025 ft | 437 kts | 49° |
| 2026-05-06 04:41 | 43.14653 | -112.86027 | 31025 ft | 437 kts | 49° |
| 2026-05-06 04:41 | 43.17952 | -112.79063 | 31444 ft | 439 kts | 49° |
| 2026-05-06 04:41 | 43.19503 | -112.75777 | 32035 ft | 432 kts | 49° |
| 2026-05-06 04:42 | 43.21144 | -112.72294 | 32566 ft | 427 kts | 49° |
| 2026-05-06 04:42 | 43.22763 | -112.68858 | 32921 ft | 425 kts | 49° |
| 2026-05-06 04:42 | 43.24361 | -112.65466 | 33164 ft | 425 kts | 48° |
| 2026-05-06 04:42 | 43.26006 | -112.61973 | 33317 ft | 427 kts | 49° |
| 2026-05-06 04:43 | 43.27622 | -112.58533 | 33649 ft | 425 kts | 48° |
| 2026-05-06 04:43 | 43.29246 | -112.55070 | 33980 ft | 423 kts | 48° |
| 2026-05-06 04:43 | 43.30726 | -112.51914 | 34259 ft | 421 kts | 48° |
| 2026-05-06 04:43 | 43.32289 | -112.48575 | 34465 ft | 420 kts | 48° |
| 2026-05-06 04:44 | 43.33868 | -112.45203 | 34597 ft | 421 kts | 48° |
| 2026-05-06 04:44 | 43.37031 | -112.38438 | 34697 ft | 427 kts | 49° |
| 2026-05-06 04:44 | 43.38645 | -112.34976 | 34885 ft | 425 kts | 49° |
| 2026-05-06 04:45 | 43.40225 | -112.31583 | 35006 ft | 426 kts | 49° |
| 2026-05-06 04:45 | 43.43416 | -112.24721 | 35050 ft | 428 kts | 49° |
| 2026-05-06 04:46 | 43.46621 | -112.17811 | 35048 ft | 428 kts | 49° |
| 2026-05-06 04:46 | 43.49803 | -112.10930 | 35052 ft | 423 kts | 49° |
| 2026-05-06 04:47 | 43.52376 | -112.03524 | 35040 ft | 442 kts | 62° |
| 2026-05-06 04:47 | 43.53976 | -111.95319 | 35051 ft | 450 kts | 65° |
| 2026-05-06 04:48 | 43.55536 | -111.86916 | 35013 ft | 451 kts | 65° |
| 2026-05-06 04:48 | 43.57034 | -111.78818 | 35045 ft | 453 kts | 65° |
| 2026-05-06 04:49 | 43.58585 | -111.70396 | 35031 ft | 455 kts | 65° |
| 2026-05-06 04:49 | 43.60136 | -111.61944 | 35074 ft | 457 kts | 66° |
| 2026-05-06 04:50 | 43.61678 | -111.53481 | 35078 ft | 453 kts | 65° |
| 2026-05-06 04:50 | 43.63206 | -111.45081 | 35014 ft | 454 kts | 66° |
| 2026-05-06 04:51 | 43.64742 | -111.36605 | 35026 ft | 458 kts | 66° |
| 2026-05-06 04:51 | 43.66285 | -111.28032 | 35022 ft | 459 kts | 66° |
| 2026-05-06 04:52 | 43.67812 | -111.19511 | 35007 ft | 458 kts | 66° |
| 2026-05-06 04:52 | 43.69337 | -111.10970 | 35006 ft | 460 kts | 67° |
| 2026-05-06 04:53 | 43.70859 | -111.02404 | 35015 ft | 463 kts | 67° |
| 2026-05-06 04:53 | 43.72385 | -110.93771 | 35062 ft | 464 kts | 66° |
| 2026-05-06 04:54 | 43.73895 | -110.85177 | 35005 ft | 461 kts | 67° |
| 2026-05-06 04:54 | 43.75399 | -110.76590 | 35089 ft | 463 kts | 67° |
| 2026-05-06 04:55 | 43.76911 | -110.67919 | 35045 ft | 465 kts | 67° |
| 2026-05-06 04:55 | 43.78419 | -110.59224 | 35054 ft | 467 kts | 67° |
| 2026-05-06 04:56 | 43.79933 | -110.50450 | 35054 ft | 467 kts | 67° |
| 2026-05-06 04:56 | 43.81424 | -110.41762 | 35022 ft | 468 kts | 67° |
| 2026-05-06 04:57 | 43.83249 | -110.33131 | 35045 ft | 455 kts | 58° |
| 2026-05-06 04:57 | 43.86312 | -110.25706 | 35032 ft | 444 kts | 50° |
| 2026-05-06 04:58 | 43.89627 | -110.18524 | 35007 ft | 442 kts | 50° |
| 2026-05-06 04:58 | 43.92913 | -110.11344 | 35089 ft | 445 kts | 50° |
| 2026-05-06 04:59 | 43.96218 | -110.04073 | 34991 ft | 444 kts | 50° |
| 2026-05-06 04:59 | 43.97852 | -110.00468 | 35128 ft | 444 kts | 50° |
| 2026-05-06 04:59 | 43.99487 | -109.96855 | 35085 ft | 447 kts | 50° |
| 2026-05-06 05:00 | 44.02781 | -109.89555 | 34983 ft | 449 kts | 50° |
| 2026-05-06 05:00 | 44.06084 | -109.82210 | 34997 ft | 450 kts | 50° |
| 2026-05-06 05:01 | 44.09412 | -109.74792 | 34998 ft | 453 kts | 50° |
| 2026-05-06 05:01 | 44.12718 | -109.67396 | 34862 ft | 449 kts | 50° |
| 2026-05-06 05:01 | 44.14333 | -109.63778 | 35025 ft | 447 kts | 51° |
| 2026-05-06 05:02 | 44.15995 | -109.60053 | 35017 ft | 449 kts | 51° |
| 2026-05-06 05:02 | 44.19277 | -109.52679 | 35100 ft | 449 kts | 51° |
| 2026-05-06 05:03 | 44.22549 | -109.45306 | 35106 ft | 449 kts | 51° |
| 2026-05-06 05:03 | 44.25828 | -109.37904 | 35054 ft | 453 kts | 51° |
| 2026-05-06 05:04 | 44.29126 | -109.30433 | 35036 ft | 451 kts | 52° |
| 2026-05-06 05:04 | 44.32398 | -109.23005 | 35021 ft | 452 kts | 52° |
| 2026-05-06 05:05 | 44.35675 | -109.15545 | 35061 ft | 453 kts | 52° |
| 2026-05-06 05:05 | 44.38966 | -109.08037 | 35132 ft | 456 kts | 52° |
| 2026-05-06 05:06 | 44.42261 | -109.00497 | 35180 ft | 457 kts | 52° |
| 2026-05-06 05:06 | 44.45532 | -108.92990 | 35188 ft | 458 kts | 52° |
| 2026-05-06 05:07 | 44.48849 | -108.85362 | 35160 ft | 458 kts | 53° |
| 2026-05-06 05:07 | 44.52118 | -108.77819 | 35175 ft | 457 kts | 53° |
| 2026-05-06 05:08 | 44.55428 | -108.70168 | 35143 ft | 462 kts | 53° |
| 2026-05-06 05:08 | 44.58739 | -108.62486 | 35139 ft | 458 kts | 53° |
| 2026-05-06 05:09 | 44.62013 | -108.54874 | 35133 ft | 456 kts | 53° |
| 2026-05-06 05:09 | 44.65265 | -108.47295 | 35142 ft | 461 kts | 53° |
| 2026-05-06 05:10 | 44.68573 | -108.39562 | 35156 ft | 461 kts | 53° |
| 2026-05-06 05:10 | 44.71835 | -108.31914 | 35129 ft | 459 kts | 54° |
| 2026-05-06 05:11 | 44.75122 | -108.24193 | 35154 ft | 463 kts | 54° |
| 2026-05-06 05:11 | 44.78391 | -108.16489 | 35153 ft | 464 kts | 54° |
| 2026-05-06 05:12 | 44.81678 | -108.08718 | 35158 ft | 463 kts | 54° |
| 2026-05-06 05:12 | 44.84943 | -108.00983 | 35134 ft | 463 kts | 54° |
| 2026-05-06 05:13 | 44.88235 | -107.93162 | 35098 ft | 466 kts | 54° |
| 2026-05-06 05:13 | 44.91502 | -107.85377 | 35047 ft | 464 kts | 54° |
| 2026-05-06 05:14 | 44.94793 | -107.77514 | 35020 ft | 466 kts | 54° |
| 2026-05-06 05:14 | 44.98067 | -107.69672 | 35033 ft | 467 kts | 55° |
| 2026-05-06 05:15 | 45.01328 | -107.61834 | 35068 ft | 461 kts | 54° |
| 2026-05-06 05:15 | 45.04556 | -107.54057 | 35110 ft | 463 kts | 55° |
| 2026-05-06 05:16 | 45.07818 | -107.46178 | 35109 ft | 465 kts | 55° |
| 2026-05-06 05:16 | 45.11072 | -107.38294 | 35142 ft | 464 kts | 55° |
| 2026-05-06 05:17 | 45.14314 | -107.30418 | 35137 ft | 467 kts | 56° |
| 2026-05-06 05:17 | 45.17565 | -107.22498 | 35136 ft | 467 kts | 56° |
| 2026-05-06 05:18 | 45.20793 | -107.14609 | 35122 ft | 466 kts | 56° |
| 2026-05-06 05:18 | 45.24032 | -107.06673 | 35134 ft | 467 kts | 56° |
| 2026-05-06 05:19 | 45.27272 | -106.98711 | 35083 ft | 463 kts | 56° |
| 2026-05-06 05:19 | 45.30481 | -106.90806 | 35108 ft | 467 kts | 56° |
| 2026-05-06 05:20 | 45.33707 | -106.82835 | 35110 ft | 469 kts | 56° |
| 2026-05-06 05:20 | 45.36949 | -106.74799 | 35106 ft | 469 kts | 56° |
| 2026-05-06 05:21 | 45.40184 | -106.66759 | 35121 ft | 468 kts | 56° |
| 2026-05-06 05:21 | 45.43365 | -106.58827 | 35082 ft | 464 kts | 56° |
| 2026-05-06 05:22 | 45.46581 | -106.50790 | 35111 ft | 469 kts | 56° |
| 2026-05-06 05:22 | 45.49774 | -106.42783 | 35055 ft | 466 kts | 56° |
| 2026-05-06 05:23 | 45.52997 | -106.34681 | 35084 ft | 469 kts | 56° |
| 2026-05-06 05:23 | 45.57807 | -106.22544 | 35082 ft | 471 kts | 57° |
| 2026-05-06 05:24 | 45.61061 | -106.14304 | 35084 ft | 471 kts | 56° |
| 2026-05-06 05:24 | 45.64232 | -106.06245 | 35083 ft | 468 kts | 56° |
| 2026-05-06 05:25 | 45.67417 | -105.98132 | 35082 ft | 471 kts | 56° |
| 2026-05-06 05:25 | 45.70597 | -105.90007 | 35091 ft | 470 kts | 57° |
| 2026-05-06 05:26 | 45.73821 | -105.81745 | 35083 ft | 471 kts | 56° |
| 2026-05-06 05:26 | 45.76979 | -105.73628 | 35094 ft | 470 kts | 57° |
| 2026-05-06 05:27 | 45.80176 | -105.65383 | 35090 ft | 468 kts | 56° |
| 2026-05-06 05:27 | 45.83326 | -105.57239 | 35098 ft | 470 kts | 56° |
| 2026-05-06 05:28 | 45.86532 | -105.48925 | 35093 ft | 472 kts | 57° |
| 2026-05-06 05:28 | 45.89674 | -105.40749 | 35094 ft | 469 kts | 56° |
| 2026-05-06 05:29 | 45.92871 | -105.32407 | 35095 ft | 470 kts | 57° |
| 2026-05-06 05:29 | 45.96009 | -105.24196 | 35097 ft | 474 kts | 57° |
| 2026-05-06 05:30 | 45.99186 | -105.15855 | 35094 ft | 471 kts | 57° |
| 2026-05-06 05:30 | 46.02309 | -105.07632 | 35116 ft | 474 kts | 57° |
| 2026-05-06 05:31 | 46.05510 | -104.99178 | 35108 ft | 472 kts | 57° |
| 2026-05-06 05:31 | 46.08614 | -104.90954 | 35106 ft | 472 kts | 57° |
| 2026-05-06 05:32 | 46.11819 | -104.82439 | 35096 ft | 475 kts | 58° |
| 2026-05-06 05:32 | 46.14938 | -104.74123 | 35096 ft | 476 kts | 57° |
| 2026-05-06 05:33 | 46.18116 | -104.65624 | 35103 ft | 474 kts | 57° |
| 2026-05-06 05:33 | 46.21233 | -104.57262 | 35075 ft | 473 kts | 58° |
| 2026-05-06 05:34 | 46.24366 | -104.48834 | 35111 ft | 474 kts | 57° |
| 2026-05-06 05:34 | 46.27478 | -104.40436 | 35120 ft | 476 kts | 58° |
| 2026-05-06 05:35 | 46.30597 | -104.31988 | 35162 ft | 475 kts | 58° |
| 2026-05-06 05:35 | 46.33691 | -104.23586 | 35127 ft | 475 kts | 58° |
| 2026-05-06 05:36 | 46.36776 | -104.15180 | 35131 ft | 478 kts | 58° |
| 2026-05-06 05:36 | 46.39865 | -104.06737 | 35148 ft | 477 kts | 58° |
| 2026-05-06 05:37 | 46.42972 | -103.98218 | 35082 ft | 476 kts | 58° |
| 2026-05-06 05:37 | 46.46051 | -103.89751 | 35106 ft | 479 kts | 58° |
| 2026-05-06 05:38 | 46.49147 | -103.81208 | 35131 ft | 476 kts | 58° |
| 2026-05-06 05:38 | 46.52171 | -103.72837 | 35096 ft | 474 kts | 58° |
| 2026-05-06 05:39 | 46.55264 | -103.64252 | 35111 ft | 478 kts | 58° |
| 2026-05-06 05:39 | 46.58321 | -103.55733 | 35080 ft | 477 kts | 58° |
| 2026-05-06 05:40 | 46.61354 | -103.47257 | 35075 ft | 477 kts | 58° |
| 2026-05-06 05:40 | 46.64400 | -103.38718 | 35095 ft | 476 kts | 58° |
| 2026-05-06 05:41 | 46.67469 | -103.30087 | 35093 ft | 476 kts | 59° |
| 2026-05-06 05:41 | 46.70491 | -103.21558 | 35087 ft | 477 kts | 59° |
| 2026-05-06 05:42 | 46.73532 | -103.12950 | 35097 ft | 476 kts | 59° |
| 2026-05-06 05:42 | 46.76537 | -103.04415 | 35076 ft | 476 kts | 59° |
| 2026-05-06 05:43 | 46.79564 | -102.95793 | 35112 ft | 480 kts | 59° |
| 2026-05-06 05:43 | 46.82576 | -102.87184 | 35088 ft | 478 kts | 59° |
| 2026-05-06 05:44 | 46.85537 | -102.78474 | 35092 ft | 481 kts | 64° |
| 2026-05-06 05:44 | 46.87815 | -102.69286 | 35073 ft | 479 kts | 67° |
| 2026-05-06 05:45 | 46.90009 | -102.60028 | 35096 ft | 482 kts | 67° |
| 2026-05-06 05:45 | 46.92175 | -102.50777 | 35091 ft | 482 kts | 67° |
| 2026-05-06 05:46 | 46.94333 | -102.41483 | 35070 ft | 483 kts | 67° |
| 2026-05-06 05:46 | 46.96495 | -102.32109 | 35077 ft | 485 kts | 68° |
| 2026-05-06 05:47 | 46.98647 | -102.22728 | 35090 ft | 483 kts | 68° |
| 2026-05-06 05:47 | 47.00766 | -102.13446 | 35074 ft | 485 kts | 68° |
| 2026-05-06 05:48 | 47.02905 | -102.04029 | 35067 ft | 485 kts | 68° |
| 2026-05-06 05:48 | 47.05015 | -101.94701 | 35063 ft | 486 kts | 68° |
| 2026-05-06 05:49 | 47.07140 | -101.85263 | 35046 ft | 485 kts | 68° |
| 2026-05-06 05:49 | 47.09253 | -101.75833 | 35055 ft | 484 kts | 68° |
| 2026-05-06 05:50 | 47.11355 | -101.66415 | 35099 ft | 488 kts | 68° |
| 2026-05-06 05:50 | 47.13450 | -101.56982 | 35088 ft | 486 kts | 68° |
| 2026-05-06 05:51 | 47.15532 | -101.47569 | 35122 ft | 488 kts | 68° |
| 2026-05-06 05:51 | 47.17616 | -101.38102 | 35094 ft | 486 kts | 69° |
| 2026-05-06 05:52 | 47.19685 | -101.28661 | 35059 ft | 486 kts | 69° |
| 2026-05-06 05:52 | 47.21747 | -101.19206 | 35071 ft | 487 kts | 69° |
| 2026-05-06 05:53 | 47.23804 | -101.09737 | 35062 ft | 488 kts | 69° |
| 2026-05-06 05:53 | 47.25849 | -101.00277 | 35067 ft | 489 kts | 69° |
| 2026-05-06 05:54 | 47.27889 | -100.90794 | 35059 ft | 488 kts | 69° |
| 2026-05-06 05:54 | 47.29930 | -100.81265 | 35055 ft | 489 kts | 69° |
| 2026-05-06 05:55 | 47.31974 | -100.71678 | 35047 ft | 490 kts | 69° |
| 2026-05-06 05:55 | 47.34006 | -100.62104 | 35058 ft | 491 kts | 69° |
| 2026-05-06 05:56 | 47.36032 | -100.52507 | 35056 ft | 489 kts | 69° |
| 2026-05-06 05:56 | 47.38048 | -100.42917 | 35040 ft | 489 kts | 69° |
| 2026-05-06 05:57 | 47.40049 | -100.33351 | 35042 ft | 489 kts | 70° |
| 2026-05-06 05:57 | 47.42043 | -100.23776 | 35040 ft | 490 kts | 70° |
| 2026-05-06 05:58 | 47.44043 | -100.14126 | 35043 ft | 492 kts | 70° |
| 2026-05-06 05:58 | 47.46045 | -100.04417 | 35045 ft | 491 kts | 70° |
| 2026-05-06 05:59 | 47.48042 | -99.94689 | 35042 ft | 492 kts | 70° |
| 2026-05-06 05:59 | 47.50019 | -99.85005 | 35046 ft | 492 kts | 70° |
| 2026-05-06 06:00 | 47.51996 | -99.75276 | 35043 ft | 492 kts | 70° |
| 2026-05-06 06:00 | 47.53961 | -99.65559 | 35040 ft | 491 kts | 70° |
| 2026-05-06 06:01 | 47.55903 | -99.55908 | 35038 ft | 492 kts | 70° |
| 2026-05-06 06:01 | 47.57853 | -99.46172 | 35061 ft | 493 kts | 70° |
| 2026-05-06 06:02 | 47.59795 | -99.36427 | 35046 ft | 492 kts | 70° |
| 2026-05-06 06:02 | 47.61769 | -99.26468 | 35044 ft | 495 kts | 71° |
| 2026-05-06 06:03 | 47.63677 | -99.16797 | 35042 ft | 495 kts | 71° |
| 2026-05-06 06:03 | 47.65604 | -99.06978 | 35055 ft | 497 kts | 71° |
| 2026-05-06 06:04 | 47.67500 | -98.97268 | 35024 ft | 494 kts | 71° |
| 2026-05-06 06:04 | 47.69417 | -98.87401 | 35041 ft | 496 kts | 71° |
| 2026-05-06 06:05 | 47.71299 | -98.77663 | 35040 ft | 497 kts | 71° |
| 2026-05-06 06:05 | 47.73215 | -98.67699 | 35048 ft | 496 kts | 71° |
| 2026-05-06 06:06 | 47.75075 | -98.57973 | 35054 ft | 497 kts | 71° |
| 2026-05-06 06:06 | 47.76979 | -98.47968 | 35049 ft | 496 kts | 71° |
| 2026-05-06 06:07 | 47.78840 | -98.38137 | 35039 ft | 496 kts | 71° |
| 2026-05-06 06:07 | 47.80755 | -98.27964 | 35031 ft | 497 kts | 72° |
| 2026-05-06 06:08 | 47.82584 | -98.18202 | 35032 ft | 497 kts | 72° |
| 2026-05-06 06:08 | 47.84467 | -98.08092 | 35017 ft | 498 kts | 72° |
| 2026-05-06 06:09 | 47.86304 | -97.98177 | 35023 ft | 499 kts | 72° |
| 2026-05-06 06:09 | 47.88169 | -97.88055 | 35027 ft | 497 kts | 72° |
| 2026-05-06 06:10 | 47.89970 | -97.78233 | 35033 ft | 497 kts | 72° |
| 2026-05-06 06:10 | 47.91830 | -97.68028 | 35046 ft | 498 kts | 72° |
| 2026-05-06 06:11 | 47.93622 | -97.58143 | 35056 ft | 498 kts | 72° |
| 2026-05-06 06:11 | 47.95462 | -97.47934 | 35056 ft | 498 kts | 72° |
| 2026-05-06 06:12 | 47.97233 | -97.38059 | 35058 ft | 497 kts | 72° |
| 2026-05-06 06:12 | 47.99068 | -97.27769 | 35063 ft | 500 kts | 73° |
| 2026-05-06 06:13 | 48.00827 | -97.17847 | 35064 ft | 499 kts | 73° |
| 2026-05-06 06:13 | 48.02637 | -97.07577 | 35068 ft | 498 kts | 73° |
| 2026-05-06 06:14 | 48.04374 | -96.97671 | 35057 ft | 501 kts | 73° |
| 2026-05-06 06:14 | 48.06166 | -96.87386 | 35050 ft | 496 kts | 73° |
| 2026-05-06 06:15 | 48.07886 | -96.77466 | 35043 ft | 499 kts | 73° |
| 2026-05-06 06:15 | 48.09656 | -96.67193 | 35041 ft | 502 kts | 73° |
| 2026-05-06 06:16 | 48.11382 | -96.57119 | 35041 ft | 500 kts | 73° |
| 2026-05-06 06:16 | 48.13138 | -96.46806 | 35046 ft | 500 kts | 73° |
| 2026-05-06 06:17 | 48.14829 | -96.36818 | 35056 ft | 500 kts | 73° |
| 2026-05-06 06:17 | 48.16568 | -96.26489 | 35065 ft | 499 kts | 74° |
| 2026-05-06 06:18 | 48.18241 | -96.16488 | 35065 ft | 501 kts | 74° |
| 2026-05-06 06:18 | 48.19958 | -96.06166 | 35055 ft | 500 kts | 74° |
| 2026-05-06 06:19 | 48.21619 | -95.96125 | 35044 ft | 501 kts | 74° |
| 2026-05-06 06:19 | 48.23322 | -95.85766 | 35014 ft | 504 kts | 74° |
| 2026-05-06 06:20 | 48.24967 | -95.75694 | 35016 ft | 503 kts | 74° |
| 2026-05-06 06:20 | 48.26638 | -95.65398 | 35003 ft | 502 kts | 74° |
| 2026-05-06 06:21 | 48.28283 | -95.55212 | 35010 ft | 504 kts | 74° |
| 2026-05-06 06:21 | 48.29933 | -95.44918 | 34999 ft | 500 kts | 74° |
| 2026-05-06 06:22 | 48.31539 | -95.34847 | 34992 ft | 501 kts | 75° |
| 2026-05-06 06:22 | 48.33190 | -95.24421 | 35000 ft | 503 kts | 75° |
| 2026-05-06 06:23 | 48.34788 | -95.14269 | 34989 ft | 501 kts | 75° |
| 2026-05-06 06:23 | 48.36408 | -95.03917 | 34987 ft | 502 kts | 75° |
| 2026-05-06 06:24 | 48.37980 | -94.93806 | 34983 ft | 501 kts | 75° |
| 2026-05-06 06:24 | 48.39588 | -94.83390 | 34987 ft | 503 kts | 75° |
| 2026-05-06 06:25 | 48.41149 | -94.73226 | 34991 ft | 504 kts | 75° |
| 2026-05-06 06:26 | 48.43509 | -94.57720 | 34993 ft | 502 kts | 75° |
| 2026-05-06 06:26 | 48.45088 | -94.47264 | 34984 ft | 504 kts | 75° |
| 2026-05-06 06:27 | 48.46616 | -94.37080 | 34975 ft | 501 kts | 75° |
| 2026-05-06 06:27 | 48.48178 | -94.26598 | 34985 ft | 505 kts | 76° |
| 2026-05-06 06:28 | 48.49691 | -94.16376 | 34974 ft | 504 kts | 76° |
| 2026-05-06 06:28 | 48.51216 | -94.06007 | 34982 ft | 502 kts | 76° |
| 2026-05-06 06:29 | 48.52695 | -93.95887 | 34989 ft | 503 kts | 76° |
| 2026-05-06 06:29 | 48.54203 | -93.85494 | 34972 ft | 502 kts | 76° |
| 2026-05-06 06:30 | 48.55655 | -93.75421 | 34979 ft | 502 kts | 76° |
| 2026-05-06 06:30 | 48.57123 | -93.65170 | 34975 ft | 504 kts | 76° |
| 2026-05-06 06:31 | 48.58549 | -93.55143 | 34963 ft | 503 kts | 76° |
| 2026-05-06 06:31 | 48.59994 | -93.44915 | 34982 ft | 505 kts | 76° |
| 2026-05-06 06:32 | 48.61784 | -93.34927 | 34957 ft | 501 kts | 66° |
| 2026-05-06 06:32 | 48.64761 | -93.25409 | 34974 ft | 503 kts | 63° |
| 2026-05-06 06:33 | 48.67645 | -93.16020 | 34968 ft | 503 kts | 64° |
| 2026-05-06 06:33 | 48.70449 | -93.06563 | 34936 ft | 500 kts | 65° |
| 2026-05-06 06:34 | 48.73225 | -92.96999 | 34941 ft | 505 kts | 65° |
| 2026-05-06 06:34 | 48.75958 | -92.87449 | 34927 ft | 503 kts | 65° |
| 2026-05-06 06:35 | 48.78680 | -92.77847 | 34921 ft | 502 kts | 65° |
| 2026-05-06 06:35 | 48.81398 | -92.68197 | 34911 ft | 502 kts | 65° |
| 2026-05-06 06:36 | 48.84072 | -92.58643 | 34926 ft | 502 kts | 65° |
| 2026-05-06 06:36 | 48.86691 | -92.49247 | 34909 ft | 499 kts | 65° |
| 2026-05-06 06:37 | 48.89358 | -92.39632 | 34913 ft | 502 kts | 65° |
| 2026-05-06 06:37 | 48.91945 | -92.30264 | 34893 ft | 501 kts | 66° |
| 2026-05-06 06:38 | 48.94557 | -92.20768 | 34897 ft | 501 kts | 66° |
| 2026-05-06 06:38 | 48.97100 | -92.11485 | 34899 ft | 502 kts | 66° |
| 2026-05-06 06:39 | 48.99744 | -92.01795 | 34885 ft | 501 kts | 66° |
| 2026-05-06 06:39 | 49.02298 | -91.92396 | 34906 ft | 504 kts | 66° |
| 2026-05-06 06:40 | 49.04968 | -91.82528 | 34889 ft | 501 kts | 66° |
| 2026-05-06 06:40 | 49.07594 | -91.72781 | 34899 ft | 499 kts | 66° |
| 2026-05-06 06:41 | 49.10291 | -91.62731 | 34887 ft | 503 kts | 66° |
| 2026-05-06 06:41 | 49.12940 | -91.52817 | 34884 ft | 500 kts | 66° |
| 2026-05-06 06:42 | 49.15601 | -91.42812 | 34879 ft | 501 kts | 66° |
| 2026-05-06 06:42 | 49.18217 | -91.32935 | 34870 ft | 500 kts | 67° |
| 2026-05-06 06:43 | 49.20858 | -91.22921 | 34871 ft | 502 kts | 67° |
| 2026-05-06 06:43 | 49.23439 | -91.13093 | 34859 ft | 500 kts | 67° |
| 2026-05-06 06:44 | 49.26082 | -91.02982 | 34858 ft | 503 kts | 67° |
| 2026-05-06 06:44 | 49.28651 | -90.93115 | 34848 ft | 500 kts | 67° |
| 2026-05-06 06:45 | 49.31277 | -90.82982 | 34855 ft | 501 kts | 67° |
| 2026-05-06 06:45 | 49.33812 | -90.73158 | 34837 ft | 498 kts | 67° |
| 2026-05-06 06:46 | 49.36412 | -90.63040 | 34836 ft | 502 kts | 67° |
| 2026-05-06 06:46 | 49.38943 | -90.53145 | 34843 ft | 501 kts | 67° |
| 2026-05-06 06:47 | 49.41517 | -90.43038 | 34829 ft | 500 kts | 67° |
| 2026-05-06 06:47 | 49.44061 | -90.33004 | 34829 ft | 500 kts | 68° |
| 2026-05-06 06:48 | 49.46600 | -90.22946 | 34818 ft | 499 kts | 68° |
| 2026-05-06 06:48 | 49.49136 | -90.12850 | 34824 ft | 501 kts | 68° |
| 2026-05-06 06:49 | 49.51650 | -90.02801 | 34835 ft | 501 kts | 68° |
| 2026-05-06 06:49 | 49.54160 | -89.92724 | 34828 ft | 499 kts | 68° |
| 2026-05-06 06:50 | 49.56651 | -89.82673 | 34826 ft | 499 kts | 68° |
| 2026-05-06 06:50 | 49.59129 | -89.72633 | 34834 ft | 501 kts | 68° |
| 2026-05-06 06:51 | 49.61637 | -89.62425 | 34826 ft | 500 kts | 68° |
| 2026-05-06 06:51 | 49.64093 | -89.52380 | 34815 ft | 500 kts | 68° |
| 2026-05-06 06:52 | 49.66548 | -89.42297 | 34812 ft | 499 kts | 68° |
| 2026-05-06 06:52 | 49.69006 | -89.32153 | 34813 ft | 499 kts | 69° |
| 2026-05-06 06:53 | 49.71415 | -89.22164 | 34810 ft | 500 kts | 69° |
| 2026-05-06 06:53 | 49.73867 | -89.11949 | 34820 ft | 501 kts | 69° |
| 2026-05-06 06:54 | 49.76277 | -89.01867 | 34822 ft | 500 kts | 69° |
| 2026-05-06 06:54 | 49.78704 | -88.91663 | 34820 ft | 501 kts | 69° |
| 2026-05-06 06:55 | 49.81085 | -88.81605 | 34819 ft | 500 kts | 69° |
| 2026-05-06 06:55 | 49.83480 | -88.71442 | 34823 ft | 499 kts | 69° |
| 2026-05-06 06:56 | 49.85856 | -88.61315 | 34812 ft | 499 kts | 69° |
| 2026-05-06 06:56 | 49.88241 | -88.51096 | 34806 ft | 501 kts | 69° |
| 2026-05-06 06:57 | 49.90595 | -88.40966 | 34796 ft | 499 kts | 69° |
| 2026-05-06 06:57 | 49.92979 | -88.30656 | 34787 ft | 500 kts | 70° |
| 2026-05-06 06:58 | 49.95299 | -88.20574 | 34787 ft | 499 kts | 70° |
| 2026-05-06 06:58 | 49.97657 | -88.10277 | 34787 ft | 501 kts | 70° |
| 2026-05-06 06:59 | 49.99958 | -88.00131 | 34773 ft | 499 kts | 70° |
| 2026-05-06 06:59 | 50.02149 | -87.89823 | 34758 ft | 500 kts | 71° |
| 2026-05-06 07:00 | 50.04304 | -87.79574 | 34775 ft | 503 kts | 71° |
| 2026-05-06 07:00 | 50.06482 | -87.69165 | 34781 ft | 500 kts | 71° |
| 2026-05-06 07:01 | 50.08625 | -87.58868 | 34774 ft | 503 kts | 71° |
| 2026-05-06 07:01 | 50.10778 | -87.48470 | 34762 ft | 501 kts | 71° |
| 2026-05-06 07:02 | 50.12909 | -87.38119 | 34764 ft | 502 kts | 71° |
| 2026-05-06 07:02 | 50.15066 | -87.27592 | 34766 ft | 503 kts | 72° |
| 2026-05-06 07:03 | 50.17166 | -87.17285 | 34752 ft | 502 kts | 71° |
| 2026-05-06 07:03 | 50.19319 | -87.06666 | 34744 ft | 502 kts | 71° |
| 2026-05-06 07:04 | 50.21400 | -86.96345 | 34748 ft | 504 kts | 71° |
| 2026-05-06 07:04 | 50.23521 | -86.85768 | 34740 ft | 502 kts | 71° |
| 2026-05-06 07:05 | 50.25588 | -86.75410 | 34744 ft | 504 kts | 71° |
| 2026-05-06 07:05 | 50.27701 | -86.64757 | 34727 ft | 502 kts | 71° |
| 2026-05-06 07:06 | 50.29756 | -86.54343 | 34734 ft | 503 kts | 71° |
| 2026-05-06 07:06 | 50.31830 | -86.43774 | 34717 ft | 503 kts | 71° |
| 2026-05-06 07:07 | 50.33875 | -86.33299 | 34728 ft | 503 kts | 72° |
| 2026-05-06 07:07 | 50.35916 | -86.22784 | 34723 ft | 503 kts | 72° |
| 2026-05-06 07:08 | 50.37944 | -86.12281 | 34724 ft | 504 kts | 72° |
| 2026-05-06 07:08 | 50.39980 | -86.01675 | 34726 ft | 505 kts | 72° |
| 2026-05-06 07:09 | 50.41995 | -85.91121 | 34708 ft | 504 kts | 72° |
| 2026-05-06 07:09 | 50.44010 | -85.80506 | 34698 ft | 504 kts | 72° |
| 2026-05-06 07:10 | 50.45997 | -85.69979 | 34693 ft | 505 kts | 72° |
| 2026-05-06 07:10 | 50.47998 | -85.59319 | 34699 ft | 506 kts | 72° |
| 2026-05-06 07:11 | 50.49976 | -85.48724 | 34707 ft | 505 kts | 72° |
| 2026-05-06 07:11 | 50.51951 | -85.38079 | 34694 ft | 504 kts | 72° |
| 2026-05-06 07:12 | 50.53914 | -85.27439 | 34703 ft | 507 kts | 73° |
| 2026-05-06 07:12 | 50.55872 | -85.16763 | 34677 ft | 505 kts | 73° |
| 2026-05-06 07:13 | 50.57795 | -85.06225 | 34698 ft | 506 kts | 72° |
| 2026-05-06 07:13 | 50.59734 | -84.95527 | 34690 ft | 506 kts | 73° |
| 2026-05-06 07:14 | 50.61645 | -84.84930 | 34679 ft | 507 kts | 73° |
| 2026-05-06 07:14 | 50.63577 | -84.74146 | 34659 ft | 507 kts | 73° |
| 2026-05-06 07:15 | 50.65480 | -84.63466 | 34651 ft | 506 kts | 73° |
| 2026-05-06 07:15 | 50.67389 | -84.52683 | 34675 ft | 507 kts | 73° |
| 2026-05-06 07:16 | 50.69264 | -84.42033 | 34684 ft | 505 kts | 73° |
| 2026-05-06 07:16 | 50.71153 | -84.31239 | 34629 ft | 508 kts | 73° |
| 2026-05-06 07:17 | 50.73005 | -84.20586 | 34649 ft | 508 kts | 73° |
| 2026-05-06 07:17 | 50.74894 | -84.09659 | 34617 ft | 507 kts | 73° |
| 2026-05-06 07:18 | 50.76737 | -83.98927 | 34614 ft | 507 kts | 73° |
| 2026-05-06 07:18 | 50.78565 | -83.88221 | 34618 ft | 506 kts | 73° |
| 2026-05-06 07:19 | 50.80388 | -83.77479 | 34620 ft | 508 kts | 73° |
| 2026-05-06 07:19 | 50.82220 | -83.66613 | 34651 ft | 509 kts | 73° |
| 2026-05-06 07:20 | 50.84032 | -83.55798 | 34639 ft | 509 kts | 73° |
| 2026-05-06 07:20 | 50.85849 | -83.44888 | 34636 ft | 509 kts | 73° |
| 2026-05-06 07:21 | 50.87635 | -83.34092 | 34641 ft | 510 kts | 75° |
| 2026-05-06 07:21 | 50.89436 | -83.23141 | 34610 ft | 510 kts | 75° |
| 2026-05-06 07:22 | 50.91195 | -83.12371 | 34610 ft | 510 kts | 75° |
| 2026-05-06 07:22 | 50.92977 | -83.01389 | 34603 ft | 511 kts | 75° |
| 2026-05-06 07:23 | 50.94725 | -82.90546 | 34600 ft | 510 kts | 75° |
| 2026-05-06 07:23 | 50.96481 | -82.79586 | 34597 ft | 509 kts | 75° |
| 2026-05-06 07:24 | 50.98208 | -82.68733 | 34578 ft | 510 kts | 75° |
| 2026-05-06 07:24 | 50.99943 | -82.57756 | 34616 ft | 512 kts | 75° |
| 2026-05-06 07:25 | 51.01668 | -82.46772 | 34596 ft | 510 kts | 75° |
| 2026-05-06 07:25 | 51.03383 | -82.35774 | 34603 ft | 510 kts | 75° |
| 2026-05-06 07:26 | 51.05061 | -82.24943 | 34572 ft | 507 kts | 75° |
| 2026-05-06 07:26 | 51.06746 | -82.14000 | 34592 ft | 513 kts | 76° |
| 2026-05-06 07:27 | 51.08419 | -82.03046 | 34582 ft | 513 kts | 76° |
| 2026-05-06 07:27 | 51.10087 | -81.92059 | 34577 ft | 509 kts | 76° |
| 2026-05-06 07:28 | 51.11731 | -81.81155 | 34587 ft | 511 kts | 76° |
| 2026-05-06 07:28 | 51.14196 | -81.64662 | 34600 ft | 512 kts | 76° |
| 2026-05-06 07:29 | 51.15829 | -81.53642 | 34606 ft | 513 kts | 76° |
| 2026-05-06 07:29 | 51.17445 | -81.42653 | 34608 ft | 511 kts | 76° |
| 2026-05-06 07:30 | 51.19057 | -81.31617 | 34579 ft | 510 kts | 76° |
| 2026-05-06 07:30 | 51.20644 | -81.20679 | 34587 ft | 512 kts | 76° |
| 2026-05-06 07:31 | 51.22231 | -81.09652 | 34593 ft | 512 kts | 77° |
| 2026-05-06 07:31 | 51.23801 | -80.98672 | 34585 ft | 512 kts | 77° |
| 2026-05-06 07:32 | 51.25381 | -80.87538 | 34590 ft | 511 kts | 76° |
| 2026-05-06 07:32 | 51.26936 | -80.76502 | 34586 ft | 511 kts | 76° |
| 2026-05-06 07:33 | 51.28478 | -80.65472 | 34587 ft | 512 kts | 77° |
| 2026-05-06 07:33 | 51.30791 | -80.54818 | 34617 ft | 509 kts | 61° |
| 2026-05-06 07:34 | 51.34219 | -80.44960 | 34598 ft | 510 kts | 59° |
| 2026-05-06 07:34 | 51.37638 | -80.35062 | 34575 ft | 508 kts | 60° |
| 2026-05-06 07:35 | 51.40995 | -80.25171 | 34547 ft | 508 kts | 60° |
| 2026-05-06 07:35 | 51.44336 | -80.15215 | 34564 ft | 510 kts | 61° |
| 2026-05-06 07:36 | 51.47661 | -80.05222 | 34570 ft | 510 kts | 61° |
| 2026-05-06 07:36 | 51.50956 | -79.95256 | 34563 ft | 510 kts | 61° |
| 2026-05-06 07:37 | 51.54258 | -79.85220 | 34566 ft | 510 kts | 61° |
| 2026-05-06 07:37 | 51.57553 | -79.75154 | 34573 ft | 509 kts | 61° |
| 2026-05-06 07:38 | 51.60837 | -79.65076 | 34572 ft | 511 kts | 61° |
| 2026-05-06 07:38 | 51.64103 | -79.55014 | 34574 ft | 511 kts | 61° |
| 2026-05-06 07:39 | 51.67370 | -79.44903 | 34568 ft | 509 kts | 61° |
| 2026-05-06 07:39 | 51.70602 | -79.34860 | 34554 ft | 508 kts | 62° |
| 2026-05-06 07:40 | 51.73843 | -79.24747 | 34556 ft | 511 kts | 62° |
| 2026-05-06 07:40 | 51.77082 | -79.14600 | 34551 ft | 510 kts | 62° |
| 2026-05-06 07:41 | 51.80303 | -79.04465 | 34551 ft | 510 kts | 62° |
| 2026-05-06 07:41 | 51.83530 | -78.94270 | 34541 ft | 510 kts | 62° |
| 2026-05-06 07:42 | 51.86747 | -78.84062 | 34550 ft | 509 kts | 62° |
| 2026-05-06 07:42 | 51.89939 | -78.73895 | 34547 ft | 509 kts | 62° |
| 2026-05-06 07:43 | 51.93124 | -78.63706 | 34550 ft | 508 kts | 62° |
| 2026-05-06 07:43 | 51.96292 | -78.53529 | 34554 ft | 509 kts | 62° |
| 2026-05-06 07:44 | 51.99477 | -78.43256 | 34556 ft | 511 kts | 62° |
| 2026-05-06 07:44 | 52.02659 | -78.32946 | 34557 ft | 509 kts | 63° |
| 2026-05-06 07:45 | 52.05822 | -78.22656 | 34552 ft | 510 kts | 63° |
| 2026-05-06 07:45 | 52.08950 | -78.12432 | 34542 ft | 507 kts | 63° |
| 2026-05-06 07:46 | 52.12095 | -78.02114 | 34532 ft | 508 kts | 63° |
| 2026-05-06 07:46 | 52.15205 | -77.91866 | 34525 ft | 510 kts | 63° |
| 2026-05-06 07:47 | 52.18341 | -77.81487 | 34534 ft | 510 kts | 63° |
| 2026-05-06 07:47 | 52.21449 | -77.71157 | 34536 ft | 510 kts | 63° |
| 2026-05-06 07:48 | 52.24550 | -77.60805 | 34551 ft | 511 kts | 63° |
| 2026-05-06 07:48 | 52.27625 | -77.50497 | 34548 ft | 510 kts | 63° |
| 2026-05-06 07:49 | 52.30729 | -77.40044 | 34542 ft | 510 kts | 63° |
| 2026-05-06 07:49 | 52.33799 | -77.29665 | 34539 ft | 510 kts | 64° |
| 2026-05-06 07:50 | 52.36874 | -77.19218 | 34536 ft | 509 kts | 64° |
| 2026-05-06 07:50 | 52.39935 | -77.08776 | 34532 ft | 510 kts | 64° |
| 2026-05-06 07:51 | 52.42991 | -76.98303 | 34526 ft | 510 kts | 64° |
| 2026-05-06 07:51 | 52.46005 | -76.87931 | 34534 ft | 511 kts | 64° |
| 2026-05-06 07:52 | 52.49056 | -76.77384 | 34529 ft | 510 kts | 64° |
| 2026-05-06 07:52 | 52.52071 | -76.66915 | 34525 ft | 510 kts | 64° |
| 2026-05-06 07:53 | 52.55087 | -76.56395 | 34517 ft | 510 kts | 64° |
| 2026-05-06 07:53 | 52.58100 | -76.45837 | 34526 ft | 511 kts | 64° |
| 2026-05-06 07:54 | 52.61111 | -76.35242 | 34525 ft | 511 kts | 64° |
| 2026-05-06 07:54 | 52.64095 | -76.24696 | 34526 ft | 511 kts | 65° |
| 2026-05-06 07:55 | 52.67083 | -76.14081 | 34536 ft | 512 kts | 65° |
| 2026-05-06 07:55 | 52.70062 | -76.03455 | 34533 ft | 512 kts | 65° |
| 2026-05-06 07:56 | 52.73051 | -75.92743 | 34521 ft | 510 kts | 65° |
| 2026-05-06 07:56 | 52.75993 | -75.82150 | 34537 ft | 512 kts | 65° |
| 2026-05-06 07:57 | 52.78950 | -75.71455 | 34525 ft | 513 kts | 65° |
| 2026-05-06 07:57 | 52.81882 | -75.60801 | 34531 ft | 512 kts | 65° |
| 2026-05-06 07:58 | 52.84819 | -75.50081 | 34530 ft | 513 kts | 65° |
| 2026-05-06 07:58 | 52.87757 | -75.39307 | 34527 ft | 513 kts | 65° |
| 2026-05-06 07:59 | 52.90702 | -75.28455 | 34527 ft | 514 kts | 66° |
| 2026-05-06 07:59 | 52.93611 | -75.17686 | 34523 ft | 515 kts | 66° |
| 2026-05-06 08:00 | 52.96504 | -75.06928 | 34524 ft | 512 kts | 66° |
| 2026-05-06 08:00 | 52.99381 | -74.96176 | 34533 ft | 514 kts | 66° |
| 2026-05-06 08:01 | 53.02266 | -74.85345 | 34537 ft | 513 kts | 66° |
| 2026-05-06 08:01 | 53.05141 | -74.74496 | 34549 ft | 514 kts | 66° |
| 2026-05-06 08:02 | 53.08000 | -74.63661 | 34539 ft | 512 kts | 66° |
| 2026-05-06 08:02 | 53.10857 | -74.52779 | 34542 ft | 514 kts | 66° |
| 2026-05-06 08:03 | 53.13714 | -74.41845 | 34541 ft | 512 kts | 66° |
| 2026-05-06 08:03 | 53.16542 | -74.30970 | 34538 ft | 514 kts | 68° |
| 2026-05-06 08:04 | 53.19381 | -74.20001 | 34520 ft | 513 kts | 67° |
| 2026-05-06 08:04 | 53.22171 | -74.09166 | 34534 ft | 512 kts | 67° |
| 2026-05-06 08:05 | 53.24999 | -73.98132 | 34541 ft | 515 kts | 68° |
| 2026-05-06 08:05 | 53.27789 | -73.87189 | 34554 ft | 514 kts | 68° |
| 2026-05-06 08:06 | 53.30590 | -73.76151 | 34539 ft | 513 kts | 68° |
| 2026-05-06 08:06 | 53.33353 | -73.65208 | 34545 ft | 514 kts | 68° |
| 2026-05-06 08:07 | 53.36105 | -73.54256 | 34532 ft | 514 kts | 68° |
| 2026-05-06 08:07 | 53.38858 | -73.43249 | 34521 ft | 514 kts | 68° |
| 2026-05-06 08:08 | 53.41642 | -73.32056 | 34530 ft | 515 kts | 68° |
| 2026-05-06 08:08 | 53.44364 | -73.21059 | 34531 ft | 514 kts | 68° |
| 2026-05-06 08:09 | 53.47092 | -73.09985 | 34528 ft | 516 kts | 68° |
| 2026-05-06 08:09 | 53.49807 | -72.98904 | 34522 ft | 514 kts | 68° |
| 2026-05-06 08:10 | 53.52510 | -72.87820 | 34539 ft | 514 kts | 68° |
| 2026-05-06 08:10 | 53.55190 | -72.76774 | 34539 ft | 515 kts | 69° |
| 2026-05-06 08:11 | 53.57881 | -72.65620 | 34526 ft | 514 kts | 69° |
| 2026-05-06 08:11 | 53.60548 | -72.54514 | 34514 ft | 515 kts | 69° |
| 2026-05-06 08:12 | 53.63232 | -72.43282 | 34521 ft | 514 kts | 69° |
| 2026-05-06 08:12 | 53.65874 | -72.32164 | 34524 ft | 515 kts | 69° |
| 2026-05-06 08:13 | 53.68532 | -72.20922 | 34514 ft | 514 kts | 70° |
| 2026-05-06 08:13 | 53.71169 | -72.09708 | 34529 ft | 515 kts | 70° |
| 2026-05-06 08:14 | 53.73805 | -71.98442 | 34537 ft | 516 kts | 70° |
| 2026-05-06 08:14 | 53.76413 | -71.87238 | 34541 ft | 516 kts | 70° |
| 2026-05-06 08:15 | 53.79034 | -71.75916 | 34533 ft | 516 kts | 69° |
| 2026-05-06 08:15 | 53.81614 | -71.64710 | 34537 ft | 516 kts | 69° |
| 2026-05-06 08:16 | 53.84208 | -71.53386 | 34513 ft | 514 kts | 70° |
| 2026-05-06 08:16 | 53.86762 | -71.42177 | 34533 ft | 515 kts | 70° |
| 2026-05-06 08:17 | 53.89387 | -71.30595 | 34518 ft | 516 kts | 70° |
| 2026-05-06 08:17 | 53.91938 | -71.19278 | 34523 ft | 518 kts | 70° |
| 2026-05-06 08:18 | 53.94501 | -71.07845 | 34515 ft | 516 kts | 70° |
| 2026-05-06 08:18 | 53.97023 | -70.96531 | 34512 ft | 515 kts | 70° |
| 2026-05-06 08:19 | 53.99548 | -70.85146 | 34491 ft | 515 kts | 70° |
| 2026-05-06 08:19 | 54.02048 | -70.73808 | 34508 ft | 516 kts | 70° |
| 2026-05-06 08:20 | 54.04567 | -70.62321 | 34502 ft | 515 kts | 70° |
| 2026-05-06 08:20 | 54.07046 | -70.50955 | 34510 ft | 517 kts | 70° |
| 2026-05-06 08:21 | 54.09539 | -70.39461 | 34514 ft | 517 kts | 70° |
| 2026-05-06 08:21 | 54.12019 | -70.27966 | 34511 ft | 515 kts | 71° |
| 2026-05-06 08:22 | 54.14476 | -70.16509 | 34505 ft | 516 kts | 71° |
| 2026-05-06 08:22 | 54.16907 | -70.05110 | 34510 ft | 515 kts | 71° |
| 2026-05-06 08:23 | 54.19349 | -69.93596 | 34523 ft | 516 kts | 71° |
| 2026-05-06 08:23 | 54.21755 | -69.82187 | 34522 ft | 516 kts | 71° |
| 2026-05-06 08:24 | 54.24175 | -69.70648 | 34515 ft | 517 kts | 71° |
| 2026-05-06 08:24 | 54.26574 | -69.59138 | 34518 ft | 517 kts | 71° |
| 2026-05-06 08:25 | 54.28977 | -69.47546 | 34513 ft | 516 kts | 71° |
| 2026-05-06 08:25 | 54.31360 | -69.35983 | 34501 ft | 515 kts | 71° |
| 2026-05-06 08:26 | 54.33729 | -69.24423 | 34505 ft | 516 kts | 72° |
| 2026-05-06 08:26 | 54.36086 | -69.12856 | 34507 ft | 516 kts | 72° |
| 2026-05-06 08:27 | 54.38444 | -69.01207 | 34513 ft | 516 kts | 72° |
| 2026-05-06 08:27 | 54.40771 | -68.89649 | 34499 ft | 518 kts | 72° |
| 2026-05-06 08:28 | 54.43095 | -68.78040 | 34508 ft | 515 kts | 72° |
| 2026-05-06 08:28 | 54.45413 | -68.66387 | 34494 ft | 519 kts | 72° |
| 2026-05-06 08:29 | 54.47719 | -68.54730 | 34489 ft | 517 kts | 72° |
| 2026-05-06 08:29 | 54.50011 | -68.43072 | 34515 ft | 517 kts | 72° |
| 2026-05-06 08:30 | 54.52332 | -68.31190 | 34499 ft | 517 kts | 73° |
| 2026-05-06 08:30 | 54.54602 | -68.19499 | 34489 ft | 519 kts | 73° |
| 2026-05-06 08:31 | 54.56879 | -68.07707 | 34493 ft | 518 kts | 73° |
| 2026-05-06 08:31 | 54.59137 | -67.95936 | 34506 ft | 521 kts | 73° |
| 2026-05-06 08:32 | 54.61393 | -67.84103 | 34499 ft | 520 kts | 73° |
| 2026-05-06 08:32 | 54.63628 | -67.72308 | 34513 ft | 520 kts | 73° |
| 2026-05-06 08:33 | 54.65862 | -67.60442 | 34505 ft | 519 kts | 73° |
| 2026-05-06 08:33 | 54.68059 | -67.48695 | 34488 ft | 521 kts | 73° |
| 2026-05-06 08:34 | 54.71370 | -67.30864 | 34518 ft | 521 kts | 74° |
| 2026-05-06 08:35 | 54.73566 | -67.18936 | 34500 ft | 521 kts | 75° |
| 2026-05-06 08:35 | 54.75756 | -67.06970 | 34490 ft | 522 kts | 75° |
| 2026-05-06 08:36 | 54.77926 | -66.95033 | 34464 ft | 522 kts | 75° |
| 2026-05-06 08:36 | 54.80103 | -66.82980 | 34455 ft | 522 kts | 75° |
| 2026-05-06 08:37 | 54.82326 | -66.71031 | 34438 ft | 525 kts | 69° |
| 2026-05-06 08:37 | 54.85921 | -66.60066 | 34464 ft | 526 kts | 55° |
| 2026-05-06 08:38 | 54.90103 | -66.49704 | 34460 ft | 530 kts | 56° |
| 2026-05-06 08:38 | 54.94169 | -66.39097 | 34494 ft | 527 kts | 57° |
| 2026-05-06 08:39 | 54.98107 | -66.28456 | 34485 ft | 526 kts | 59° |
| 2026-05-06 08:39 | 55.02007 | -66.17689 | 34506 ft | 527 kts | 59° |
| 2026-05-06 08:40 | 55.05861 | -66.06896 | 34498 ft | 523 kts | 59° |
| 2026-05-06 08:40 | 55.09702 | -65.96030 | 34491 ft | 525 kts | 59° |
| 2026-05-06 08:41 | 55.13483 | -65.85255 | 34486 ft | 525 kts | 60° |
| 2026-05-06 08:41 | 55.17252 | -65.74447 | 34464 ft | 525 kts | 60° |
| 2026-05-06 08:42 | 55.21037 | -65.63534 | 34472 ft | 528 kts | 60° |
| 2026-05-06 08:42 | 55.24798 | -65.52635 | 34483 ft | 525 kts | 60° |
| 2026-05-06 08:43 | 55.28518 | -65.41803 | 34503 ft | 526 kts | 60° |
| 2026-05-06 08:43 | 55.32259 | -65.30862 | 34485 ft | 525 kts | 61° |
| 2026-05-06 08:44 | 55.35936 | -65.20058 | 34483 ft | 525 kts | 61° |
| 2026-05-06 08:44 | 55.39662 | -65.09058 | 34462 ft | 524 kts | 61° |
| 2026-05-06 08:45 | 55.43332 | -64.98174 | 34467 ft | 526 kts | 61° |
| 2026-05-06 08:45 | 55.47051 | -64.87096 | 34468 ft | 526 kts | 61° |
| 2026-05-06 08:46 | 55.50682 | -64.76231 | 34492 ft | 524 kts | 61° |
| 2026-05-06 08:46 | 55.54357 | -64.65179 | 34486 ft | 526 kts | 61° |
| 2026-05-06 08:47 | 55.57983 | -64.54230 | 34496 ft | 523 kts | 61° |
| 2026-05-06 08:47 | 55.61613 | -64.43218 | 34502 ft | 523 kts | 61° |
| 2026-05-06 08:48 | 55.65205 | -64.32272 | 34465 ft | 523 kts | 62° |
| 2026-05-06 08:48 | 55.68824 | -64.21195 | 34466 ft | 524 kts | 62° |
| 2026-05-06 08:49 | 55.72404 | -64.10181 | 34462 ft | 523 kts | 62° |
| 2026-05-06 08:49 | 55.76016 | -63.99023 | 34451 ft | 523 kts | 62° |
| 2026-05-06 08:50 | 55.79594 | -63.87913 | 34450 ft | 524 kts | 62° |
| 2026-05-06 08:50 | 55.83165 | -63.76778 | 34460 ft | 524 kts | 62° |
| 2026-05-06 08:51 | 55.86713 | -63.65662 | 34455 ft | 522 kts | 62° |
| 2026-05-06 08:51 | 55.90283 | -63.54425 | 34452 ft | 523 kts | 62° |
| 2026-05-06 08:52 | 55.93784 | -63.43353 | 34466 ft | 521 kts | 62° |
| 2026-05-06 08:52 | 55.97324 | -63.32106 | 34470 ft | 522 kts | 63° |
| 2026-05-06 08:53 | 56.00807 | -63.20984 | 34464 ft | 523 kts | 63° |
| 2026-05-06 08:53 | 56.04308 | -63.09757 | 34473 ft | 523 kts | 63° |
| 2026-05-06 08:54 | 56.07792 | -62.98526 | 34466 ft | 523 kts | 63° |
| 2026-05-06 08:54 | 56.11272 | -62.87257 | 34458 ft | 526 kts | 63° |
| 2026-05-06 08:55 | 56.14716 | -62.76057 | 34466 ft | 524 kts | 63° |
| 2026-05-06 08:55 | 56.18198 | -62.64672 | 34462 ft | 524 kts | 63° |
| 2026-05-06 08:56 | 56.21635 | -62.53383 | 34458 ft | 524 kts | 63° |
| 2026-05-06 08:56 | 56.25063 | -62.42071 | 34455 ft | 522 kts | 63° |
| 2026-05-06 08:57 | 56.28503 | -62.30660 | 34460 ft | 525 kts | 64° |
| 2026-05-06 08:57 | 56.31909 | -62.19311 | 34475 ft | 520 kts | 64° |
| 2026-05-06 08:58 | 56.35255 | -62.08102 | 34500 ft | 525 kts | 64° |
| 2026-05-06 08:58 | 56.38622 | -61.96776 | 34524 ft | 523 kts | 64° |
| 2026-05-06 08:59 | 56.41959 | -61.85493 | 34521 ft | 523 kts | 64° |
| 2026-05-06 08:59 | 56.45300 | -61.74143 | 34553 ft | 523 kts | 64° |
| 2026-05-06 09:00 | 56.48667 | -61.62645 | 34524 ft | 526 kts | 64° |
| 2026-05-06 09:00 | 56.52004 | -61.51199 | 34539 ft | 522 kts | 64° |
| 2026-05-06 09:01 | 56.55327 | -61.39741 | 34553 ft | 524 kts | 64° |
| 2026-05-06 09:01 | 56.58649 | -61.28231 | 34496 ft | 522 kts | 65° |
| 2026-05-06 09:02 | 56.61925 | -61.16826 | 34532 ft | 523 kts | 65° |
| 2026-05-06 09:02 | 56.65208 | -61.05334 | 34528 ft | 521 kts | 65° |
| 2026-05-06 09:03 | 56.68489 | -60.93797 | 34527 ft | 524 kts | 66° |
| 2026-05-06 09:03 | 56.71804 | -60.82078 | 34513 ft | 527 kts | 66° |
| 2026-05-06 09:04 | 56.75072 | -60.70472 | 34526 ft | 523 kts | 66° |
| 2026-05-06 09:04 | 56.78321 | -60.58869 | 34510 ft | 528 kts | 66° |
| 2026-05-06 09:05 | 56.81513 | -60.47417 | 34531 ft | 524 kts | 65° |
| 2026-05-06 09:05 | 56.84771 | -60.35664 | 34558 ft | 526 kts | 65° |
| 2026-05-06 09:06 | 56.88018 | -60.23894 | 34541 ft | 526 kts | 66° |
| 2026-05-06 09:06 | 56.91275 | -60.12029 | 34580 ft | 525 kts | 66° |
| 2026-05-06 09:07 | 56.94432 | -60.00462 | 34559 ft | 523 kts | 66° |
| 2026-05-06 09:07 | 56.97631 | -59.88689 | 34545 ft | 522 kts | 66° |
| 2026-05-06 09:08 | 57.00804 | -59.76943 | 34550 ft | 526 kts | 67° |
| 2026-05-06 09:08 | 57.04003 | -59.65044 | 34494 ft | 525 kts | 67° |
| 2026-05-06 09:09 | 57.07091 | -59.53500 | 34599 ft | 521 kts | 67° |
| 2026-05-06 09:09 | 57.10210 | -59.41774 | 34591 ft | 522 kts | 67° |
| 2026-05-06 09:10 | 57.13320 | -59.30024 | 34551 ft | 522 kts | 68° |
| 2026-05-06 09:10 | 57.16412 | -59.18280 | 34561 ft | 525 kts | 68° |
| 2026-05-06 09:11 | 57.19474 | -59.06591 | 34596 ft | 522 kts | 68° |
| 2026-05-06 09:11 | 57.22530 | -58.94867 | 34607 ft | 519 kts | 68° |
| 2026-05-06 09:12 | 57.25610 | -58.82977 | 34585 ft | 529 kts | 68° |
| 2026-05-06 09:12 | 57.28725 | -58.70900 | 34610 ft | 522 kts | 68° |
| 2026-05-06 09:13 | 57.31779 | -58.58988 | 34644 ft | 526 kts | 68° |
| 2026-05-06 09:13 | 57.34864 | -58.46894 | 34593 ft | 526 kts | 68° |
| 2026-05-06 09:14 | 57.37891 | -58.34961 | 34652 ft | 526 kts | 69° |
| 2026-05-06 09:14 | 57.40932 | -58.22908 | 34677 ft | 529 kts | 69° |
| 2026-05-06 09:15 | 57.43965 | -58.10821 | 34571 ft | 528 kts | 69° |
| 2026-05-06 09:15 | 57.46943 | -57.98708 | 34658 ft | 520 kts | 70° |
| 2026-05-06 09:16 | 57.49797 | -57.86439 | 34567 ft | 526 kts | 70° |
| 2026-05-06 09:16 | 57.52606 | -57.74271 | 34640 ft | 522 kts | 70° |
| 2026-05-06 09:17 | 57.55381 | -57.62161 | 34620 ft | 524 kts | 70° |
| 2026-05-06 09:17 | 57.58170 | -57.49926 | 34611 ft | 520 kts | 70° |
| 2026-05-06 09:18 | 57.60915 | -57.37803 | 34659 ft | 520 kts | 69° |
| 2026-05-06 09:18 | 57.63653 | -57.25642 | 34675 ft | 519 kts | 71° |
| 2026-05-06 09:19 | 57.66357 | -57.13559 | 34682 ft | 520 kts | 70° |
| 2026-05-06 09:19 | 57.69067 | -57.01386 | 34701 ft | 518 kts | 70° |
| 2026-05-06 09:20 | 57.71774 | -56.89146 | 34689 ft | 519 kts | 70° |
| 2026-05-06 09:20 | 57.74471 | -56.76885 | 34717 ft | 519 kts | 70° |
| 2026-05-06 09:21 | 57.77183 | -56.64485 | 34710 ft | 512 kts | 70° |
| 2026-05-06 09:21 | 57.79837 | -56.52273 | 34687 ft | 513 kts | 70° |
| 2026-05-06 09:21 | 57.81156 | -56.46178 | 34792 ft | 512 kts | 70° |
| 2026-05-06 09:22 | 57.82473 | -56.40072 | 34721 ft | 517 kts | 70° |
| 2026-05-06 09:22 | 57.85116 | -56.27766 | 34744 ft | 510 kts | 71° |
| 2026-05-06 09:23 | 57.87728 | -56.15538 | 34803 ft | 506 kts | 71° |
| 2026-05-06 09:23 | 57.90348 | -56.03180 | 34720 ft | 519 kts | 71° |
| 2026-05-06 09:24 | 57.92945 | -55.90875 | 34780 ft | 510 kts | 71° |
| 2026-05-06 09:24 | 57.95543 | -55.78484 | 34790 ft | 515 kts | 70° |
| 2026-05-06 09:25 | 57.98122 | -55.66114 | 34759 ft | 506 kts | 71° |
| 2026-05-06 09:25 | 58.00657 | -55.53879 | 34812 ft | 508 kts | 70° |
| 2026-05-06 09:26 | 58.03179 | -55.41626 | 34725 ft | 510 kts | 70° |
| 2026-05-06 09:26 | 58.05689 | -55.29362 | 34820 ft | 508 kts | 71° |
| 2026-05-06 09:27 | 58.08168 | -55.17173 | 34857 ft | 505 kts | 71° |
| 2026-05-06 09:27 | 58.09415 | -55.11015 | 34733 ft | 510 kts | 71° |
| 2026-05-06 09:27 | 58.10640 | -55.04943 | 34801 ft | 508 kts | 71° |
| 2026-05-06 09:28 | 58.13137 | -54.92517 | 34804 ft | 505 kts | 71° |
| 2026-05-06 09:28 | 58.15615 | -54.80109 | 34767 ft | 508 kts | 71° |
| 2026-05-06 09:29 | 58.18036 | -54.67907 | 34815 ft | 505 kts | 71° |
| 2026-05-06 09:29 | 58.20464 | -54.55595 | 34818 ft | 504 kts | 70° |
| 2026-05-06 09:30 | 58.22873 | -54.43303 | 34891 ft | 500 kts | 70° |
| 2026-05-06 09:30 | 58.25277 | -54.30958 | 34842 ft | 502 kts | 71° |
| 2026-05-06 09:31 | 58.27657 | -54.18667 | 34855 ft | 493 kts | 72° |
| 2026-05-06 09:31 | 58.29992 | -54.06518 | 34857 ft | 500 kts | 72° |
| 2026-05-06 09:32 | 58.32350 | -53.94181 | 34812 ft | 499 kts | 72° |
| 2026-05-06 09:32 | 58.34677 | -53.81928 | 34833 ft | 492 kts | 72° |
| 2026-05-06 09:33 | 58.36962 | -53.69816 | 34885 ft | 495 kts | 71° |
| 2026-05-06 09:33 | 58.39258 | -53.57572 | 34800 ft | 496 kts | 72° |
| 2026-05-06 09:34 | 58.41520 | -53.45429 | 34864 ft | 493 kts | 71° |
| 2026-05-06 09:34 | 58.43778 | -53.33232 | 34906 ft | 497 kts | 72° |
| 2026-05-06 09:35 | 58.46037 | -53.20952 | 34932 ft | 488 kts | 72° |
| 2026-05-06 09:35 | 58.48253 | -53.08824 | 34927 ft | 491 kts | 72° |
| 2026-05-06 09:36 | 58.50488 | -52.96521 | 34925 ft | 483 kts | 72° |
| 2026-05-06 09:36 | 58.52658 | -52.84489 | 34950 ft | 486 kts | 72° |
| 2026-05-06 09:37 | 58.54842 | -52.72305 | 34911 ft | 481 kts | 72° |
| 2026-05-06 09:37 | 58.56975 | -52.60325 | 34965 ft | 482 kts | 72° |
| 2026-05-06 09:38 | 58.59117 | -52.48219 | 34930 ft | 479 kts | 72° |
| 2026-05-06 09:38 | 58.61208 | -52.36325 | 34955 ft | 481 kts | 72° |
| 2026-05-06 09:39 | 58.63325 | -52.24199 | 34981 ft | 477 kts | 73° |
| 2026-05-06 09:39 | 58.65399 | -52.12242 | 34921 ft | 479 kts | 73° |
| 2026-05-06 09:39 | 58.66440 | -52.06213 | 35025 ft | 477 kts | 73° |
| 2026-05-06 09:40 | 58.67481 | -52.00162 | 34939 ft | 476 kts | 73° |
| 2026-05-06 09:40 | 58.70541 | -51.82262 | 34977 ft | 474 kts | 73° |
| 2026-05-06 09:41 | 58.72566 | -51.70320 | 34995 ft | 476 kts | 73° |
| 2026-05-06 09:41 | 58.74597 | -51.58258 | 34982 ft | 476 kts | 73° |
| 2026-05-06 09:42 | 58.76604 | -51.46257 | 35002 ft | 475 kts | 73° |
| 2026-05-06 09:42 | 58.78599 | -51.34251 | 35012 ft | 476 kts | 74° |
| 2026-05-06 09:43 | 58.80579 | -51.22259 | 35041 ft | 474 kts | 74° |
| 2026-05-06 09:43 | 58.82550 | -51.10230 | 35046 ft | 474 kts | 73° |
| 2026-05-06 09:44 | 58.84510 | -50.98193 | 35051 ft | 473 kts | 73° |
| 2026-05-06 09:44 | 58.85494 | -50.92119 | 34889 ft | 473 kts | 73° |
| 2026-05-06 09:44 | 58.86465 | -50.86107 | 35075 ft | 475 kts | 73° |
| 2026-05-06 09:45 | 58.88421 | -50.73922 | 35057 ft | 476 kts | 74° |
| 2026-05-06 09:45 | 58.90355 | -50.61800 | 34924 ft | 472 kts | 74° |
| 2026-05-06 09:46 | 58.91307 | -50.55796 | 35061 ft | 472 kts | 74° |
| 2026-05-06 09:46 | 58.92249 | -50.49836 | 35274 ft | 476 kts | 74° |
| 2026-05-06 09:46 | 58.93212 | -50.43715 | 34977 ft | 478 kts | 73° |
| 2026-05-06 09:46 | 58.94170 | -50.37621 | 35083 ft | 473 kts | 74° |
| 2026-05-06 09:47 | 58.96063 | -50.25493 | 35060 ft | 474 kts | 75° |
| 2026-05-06 09:47 | 58.97937 | -50.13403 | 35099 ft | 474 kts | 75° |
| 2026-05-06 09:48 | 58.99798 | -50.01263 | 35112 ft | 471 kts | 76° |
| 2026-05-06 09:48 | 59.01537 | -49.89091 | 35129 ft | 472 kts | 76° |
| 2026-05-06 09:49 | 59.03254 | -49.76916 | 35162 ft | 468 kts | 76° |
| 2026-05-06 09:49 | 59.04943 | -49.64827 | 35162 ft | 471 kts | 76° |
| 2026-05-06 09:50 | 59.06627 | -49.52672 | 35140 ft | 468 kts | 76° |
| 2026-05-06 09:50 | 59.08287 | -49.40600 | 35138 ft | 465 kts | 76° |
| 2026-05-06 09:51 | 59.09942 | -49.28466 | 35185 ft | 467 kts | 77° |
| 2026-05-06 09:51 | 59.11577 | -49.16385 | 35127 ft | 463 kts | 77° |
| 2026-05-06 09:52 | 59.13198 | -49.04313 | 35192 ft | 462 kts | 78° |
| 2026-05-06 09:52 | 59.14784 | -48.92410 | 35135 ft | 460 kts | 77° |
| 2026-05-06 09:53 | 59.16376 | -48.80357 | 35128 ft | 460 kts | 77° |
| 2026-05-06 09:53 | 59.17963 | -48.68256 | 35176 ft | 461 kts | 77° |
| 2026-05-06 09:54 | 59.19510 | -48.56365 | 35153 ft | 456 kts | 78° |
| 2026-05-06 09:54 | 59.21061 | -48.44342 | 35155 ft | 457 kts | 78° |
| 2026-05-06 09:55 | 59.22593 | -48.32377 | 35149 ft | 455 kts | 78° |
| 2026-05-06 09:55 | 59.24106 | -48.20463 | 35182 ft | 455 kts | 79° |
| 2026-05-06 09:56 | 59.25607 | -48.08539 | 35167 ft | 454 kts | 79° |
| 2026-05-06 09:56 | 59.27101 | -47.96584 | 35138 ft | 452 kts | 79° |
| 2026-05-06 09:57 | 59.28568 | -47.84742 | 35190 ft | 452 kts | 79° |
| 2026-05-06 09:57 | 59.30029 | -47.72854 | 35207 ft | 452 kts | 79° |
| 2026-05-06 09:58 | 59.31476 | -47.60974 | 35164 ft | 453 kts | 79° |
| 2026-05-06 09:58 | 59.32922 | -47.49008 | 35200 ft | 453 kts | 78° |
| 2026-05-06 09:59 | 59.34344 | -47.37149 | 35191 ft | 448 kts | 79° |
| 2026-05-06 09:59 | 59.35748 | -47.25326 | 35181 ft | 452 kts | 79° |
| 2026-05-06 10:00 | 59.37152 | -47.13411 | 35178 ft | 451 kts | 79° |
| 2026-05-06 10:00 | 59.38547 | -47.01477 | 35215 ft | 449 kts | 79° |
| 2026-05-06 10:01 | 59.39919 | -46.89631 | 35194 ft | 449 kts | 79° |
| 2026-05-06 10:01 | 59.41287 | -46.77708 | 35176 ft | 449 kts | 79° |
| 2026-05-06 10:02 | 59.42638 | -46.65842 | 35214 ft | 448 kts | 79° |
| 2026-05-06 10:02 | 59.43974 | -46.54000 | 35208 ft | 447 kts | 79° |
| 2026-05-06 10:03 | 59.45289 | -46.42234 | 35180 ft | 447 kts | 79° |
| 2026-05-06 10:03 | 59.46610 | -46.30318 | 35227 ft | 449 kts | 79° |
| 2026-05-06 10:04 | 59.47915 | -46.18441 | 35229 ft | 446 kts | 79° |
| 2026-05-06 10:04 | 59.49211 | -46.06531 | 35217 ft | 449 kts | 79° |
| 2026-05-06 10:05 | 59.50499 | -45.94591 | 35240 ft | 448 kts | 79° |
| 2026-05-06 10:05 | 59.51774 | -45.82653 | 35236 ft | 446 kts | 79° |
| 2026-05-06 10:06 | 59.53024 | -45.70849 | 35221 ft | 447 kts | 79° |
| 2026-05-06 10:06 | 59.54285 | -45.58821 | 35255 ft | 447 kts | 79° |
| 2026-05-06 10:07 | 59.55513 | -45.47009 | 35243 ft | 449 kts | 79° |
| 2026-05-06 10:07 | 59.56756 | -45.34930 | 35239 ft | 448 kts | 80° |
| 2026-05-06 10:08 | 59.57972 | -45.23002 | 35241 ft | 449 kts | 80° |
| 2026-05-06 10:08 | 59.59190 | -45.10930 | 35239 ft | 449 kts | 79° |
| 2026-05-06 10:09 | 59.60383 | -44.98996 | 35240 ft | 450 kts | 79° |
| 2026-05-06 10:09 | 59.61573 | -44.86968 | 35273 ft | 447 kts | 79° |
| 2026-05-06 10:10 | 59.62741 | -44.75057 | 35235 ft | 448 kts | 79° |
| 2026-05-06 10:10 | 59.63901 | -44.63094 | 35246 ft | 449 kts | 79° |
| 2026-05-06 10:11 | 59.65051 | -44.51118 | 35275 ft | 450 kts | 79° |
| 2026-05-06 10:11 | 59.66196 | -44.39069 | 35298 ft | 449 kts | 79° |
| 2026-05-06 10:12 | 59.67334 | -44.26972 | 35250 ft | 449 kts | 80° |
| 2026-05-06 10:12 | 59.68453 | -44.14963 | 35250 ft | 448 kts | 80° |
| 2026-05-06 10:13 | 59.69566 | -44.02874 | 35264 ft | 449 kts | 80° |
| 2026-05-06 10:13 | 59.70663 | -43.90831 | 35315 ft | 449 kts | 79° |
| 2026-05-06 10:14 | 59.71751 | -43.78766 | 35320 ft | 450 kts | 79° |
| 2026-05-06 10:14 | 59.72837 | -43.66582 | 35335 ft | 450 kts | 79° |
| 2026-05-06 10:15 | 59.73905 | -43.54480 | 35325 ft | 450 kts | 79° |
| 2026-05-06 10:15 | 59.74963 | -43.42347 | 35336 ft | 450 kts | 79° |
| 2026-05-06 10:16 | 59.76005 | -43.30269 | 35340 ft | 450 kts | 80° |
| 2026-05-06 10:16 | 59.77043 | -43.18099 | 35367 ft | 452 kts | 80° |
| 2026-05-06 10:17 | 59.78064 | -43.05989 | 35353 ft | 452 kts | 80° |
| 2026-05-06 10:17 | 59.79080 | -42.93789 | 35363 ft | 452 kts | 80° |
| 2026-05-06 10:18 | 59.80083 | -42.81610 | 35378 ft | 452 kts | 79° |
| 2026-05-06 10:18 | 59.81086 | -42.69283 | 35357 ft | 451 kts | 80° |
| 2026-05-06 10:19 | 59.82063 | -42.57135 | 35361 ft | 455 kts | 79° |
| 2026-05-06 10:19 | 59.83041 | -42.44816 | 35367 ft | 455 kts | 79° |
| 2026-05-06 10:20 | 59.84007 | -42.32503 | 35370 ft | 454 kts | 80° |
| 2026-05-06 10:20 | 59.84954 | -42.20280 | 35376 ft | 457 kts | 80° |
| 2026-05-06 10:21 | 59.85892 | -42.08019 | 35350 ft | 455 kts | 80° |
| 2026-05-06 10:21 | 59.86824 | -41.95677 | 35360 ft | 457 kts | 80° |
| 2026-05-06 10:22 | 59.87741 | -41.83371 | 35365 ft | 455 kts | 80° |
| 2026-05-06 10:22 | 59.88646 | -41.71078 | 35354 ft | 453 kts | 80° |
| 2026-05-06 10:23 | 59.89534 | -41.58840 | 35369 ft | 453 kts | 80° |
| 2026-05-06 10:23 | 59.90421 | -41.46460 | 35365 ft | 455 kts | 80° |
| 2026-05-06 10:24 | 59.91297 | -41.34066 | 35386 ft | 459 kts | 80° |
| 2026-05-06 10:24 | 59.92164 | -41.21627 | 35371 ft | 457 kts | 81° |
| 2026-05-06 10:25 | 59.93015 | -41.09238 | 35353 ft | 459 kts | 80° |
| 2026-05-06 10:25 | 59.93857 | -40.96797 | 35362 ft | 457 kts | 80° |
| 2026-05-06 10:26 | 59.94684 | -40.84412 | 35359 ft | 458 kts | 80° |
| 2026-05-06 10:26 | 59.95504 | -40.71949 | 35356 ft | 458 kts | 80° |
| 2026-05-06 10:27 | 59.96312 | -40.59482 | 35335 ft | 460 kts | 81° |
| 2026-05-06 10:27 | 59.97115 | -40.46895 | 35352 ft | 461 kts | 80° |
| 2026-05-06 10:28 | 59.97905 | -40.34325 | 35364 ft | 460 kts | 81° |
| 2026-05-06 10:28 | 59.98685 | -40.21721 | 35360 ft | 461 kts | 81° |
| 2026-05-06 10:29 | 59.99442 | -40.09278 | 35363 ft | 461 kts | 81° |
| 2026-05-06 10:29 | 60.00092 | -39.96560 | 35358 ft | 468 kts | 83° |
| 2026-05-06 10:30 | 60.00580 | -39.83871 | 35362 ft | 465 kts | 83° |
| 2026-05-06 10:30 | 60.01051 | -39.71138 | 35366 ft | 464 kts | 83° |
| 2026-05-06 10:31 | 60.01505 | -39.58373 | 35350 ft | 465 kts | 83° |
| 2026-05-06 10:31 | 60.01944 | -39.45620 | 35361 ft | 466 kts | 83° |
| 2026-05-06 10:32 | 60.02371 | -39.32830 | 35352 ft | 467 kts | 84° |
| 2026-05-06 10:32 | 60.02786 | -39.20000 | 35363 ft | 470 kts | 84° |
| 2026-05-06 10:33 | 60.03191 | -39.07053 | 35353 ft | 469 kts | 84° |
| 2026-05-06 10:33 | 60.03580 | -38.94224 | 35355 ft | 469 kts | 84° |
| 2026-05-06 10:34 | 60.03956 | -38.81390 | 35379 ft | 471 kts | 83° |
| 2026-05-06 10:34 | 60.04324 | -38.68429 | 35347 ft | 471 kts | 84° |
| 2026-05-06 10:35 | 60.04677 | -38.55526 | 35362 ft | 472 kts | 83° |
| 2026-05-06 10:35 | 60.05019 | -38.42590 | 35358 ft | 475 kts | 83° |
| 2026-05-06 10:36 | 60.05353 | -38.29398 | 35358 ft | 476 kts | 84° |
| 2026-05-06 10:36 | 60.05673 | -38.16317 | 35351 ft | 477 kts | 84° |
| 2026-05-06 10:37 | 60.05978 | -38.03289 | 35338 ft | 477 kts | 84° |
| 2026-05-06 10:37 | 60.06270 | -37.90242 | 35351 ft | 477 kts | 84° |
| 2026-05-06 10:38 | 60.06551 | -37.77147 | 35346 ft | 477 kts | 84° |
| 2026-05-06 10:38 | 60.06819 | -37.64034 | 35348 ft | 478 kts | 84° |
| 2026-05-06 10:39 | 60.07077 | -37.50760 | 35352 ft | 482 kts | 84° |
| 2026-05-06 10:39 | 60.07321 | -37.37511 | 35345 ft | 482 kts | 84° |
| 2026-05-06 10:40 | 60.07555 | -37.24097 | 35348 ft | 485 kts | 85° |
| 2026-05-06 10:40 | 60.07772 | -37.10830 | 35336 ft | 484 kts | 85° |
| 2026-05-06 10:41 | 60.07978 | -36.97539 | 35374 ft | 489 kts | 85° |
| 2026-05-06 10:41 | 60.08169 | -36.84228 | 35320 ft | 484 kts | 85° |
| 2026-05-06 10:42 | 60.08348 | -36.70895 | 35371 ft | 487 kts | 85° |
| 2026-05-06 10:42 | 60.08515 | -36.57439 | 35349 ft | 485 kts | 85° |
| 2026-05-06 10:43 | 60.08668 | -36.43977 | 35354 ft | 488 kts | 85° |
| 2026-05-06 10:44 | 60.08874 | -36.23660 | 35371 ft | 493 kts | 86° |
| 2026-05-06 10:44 | 60.08992 | -36.10076 | 35328 ft | 491 kts | 85° |
| 2026-05-06 10:45 | 60.09100 | -35.96381 | 35316 ft | 495 kts | 85° |
| 2026-05-06 10:45 | 60.09192 | -35.82690 | 35349 ft | 494 kts | 86° |
| 2026-05-06 10:46 | 60.09271 | -35.68964 | 35362 ft | 497 kts | 86° |
| 2026-05-06 10:46 | 60.09335 | -35.55302 | 35303 ft | 496 kts | 86° |
| 2026-05-06 10:47 | 60.09385 | -35.41548 | 35316 ft | 496 kts | 85° |
| 2026-05-06 10:47 | 60.09421 | -35.27757 | 35366 ft | 498 kts | 87° |
| 2026-05-06 10:48 | 60.09442 | -35.14015 | 35445 ft | 497 kts | 86° |
| 2026-05-06 10:48 | 60.09448 | -35.07224 | 35277 ft | 501 kts | 87° |
| 2026-05-06 10:48 | 60.09450 | -35.00239 | 35292 ft | 500 kts | 87° |
| 2026-05-06 10:49 | 60.09443 | -34.86415 | 35288 ft | 501 kts | 86° |
| 2026-05-06 10:49 | 60.09421 | -34.72708 | 35323 ft | 502 kts | 87° |
| 2026-05-06 10:50 | 60.09385 | -34.58793 | 35296 ft | 500 kts | 86° |
| 2026-05-06 10:50 | 60.09335 | -34.44959 | 35467 ft | 503 kts | 86° |
| 2026-05-06 10:50 | 60.09306 | -34.38026 | 35258 ft | 505 kts | 87° |
| 2026-05-06 10:51 | 60.09270 | -34.30955 | 35290 ft | 505 kts | 88° |
| 2026-05-06 10:51 | 60.09232 | -34.23949 | 35413 ft | 506 kts | 88° |
| 2026-05-06 10:51 | 60.09190 | -34.17026 | 35338 ft | 506 kts | 88° |
| 2026-05-06 10:52 | 60.09094 | -34.02901 | 35307 ft | 507 kts | 88° |
| 2026-05-06 10:52 | 60.08984 | -33.88874 | 35259 ft | 508 kts | 87° |
| 2026-05-06 10:53 | 60.08859 | -33.74896 | 35306 ft | 507 kts | 88° |
| 2026-05-06 10:53 | 60.08719 | -33.60832 | 35347 ft | 509 kts | 88° |
| 2026-05-06 10:54 | 60.08563 | -33.46693 | 35339 ft | 508 kts | 88° |
| 2026-05-06 10:54 | 60.08394 | -33.32676 | 35315 ft | 511 kts | 89° |
| 2026-05-06 10:55 | 60.08208 | -33.18547 | 35285 ft | 513 kts | 89° |
| 2026-05-06 10:55 | 60.08008 | -33.04504 | 35237 ft | 512 kts | 88° |
| 2026-05-06 10:56 | 60.07790 | -32.90280 | 35362 ft | 513 kts | 89° |
| 2026-05-06 10:56 | 60.07558 | -32.76108 | 35256 ft | 513 kts | 88° |
| 2026-05-06 10:57 | 60.07312 | -32.61963 | 35271 ft | 515 kts | 89° |
| 2026-05-06 10:57 | 60.07049 | -32.47789 | 35319 ft | 514 kts | 89° |
| 2026-05-06 10:58 | 60.06769 | -32.33467 | 35266 ft | 516 kts | 89° |
| 2026-05-06 10:58 | 60.06475 | -32.19235 | 35326 ft | 517 kts | 90° |
| 2026-05-06 10:59 | 60.06165 | -32.04995 | 35302 ft | 519 kts | 90° |
| 2026-05-06 10:59 | 60.05838 | -31.90678 | 35271 ft | 519 kts | 90° |
| 2026-05-06 11:00 | 60.05498 | -31.76450 | 35248 ft | 518 kts | 90° |
| 2026-05-06 11:00 | 60.05140 | -31.62138 | 35257 ft | 518 kts | 89° |
| 2026-05-06 11:01 | 60.04765 | -31.47753 | 35280 ft | 519 kts | 90° |
| 2026-05-06 11:01 | 60.04377 | -31.33497 | 35223 ft | 519 kts | 91° |
| 2026-05-06 11:02 | 60.03972 | -31.19152 | 35267 ft | 519 kts | 91° |
| 2026-05-06 11:02 | 60.03553 | -31.04875 | 35243 ft | 522 kts | 91° |
| 2026-05-06 11:03 | 60.03116 | -30.90516 | 35281 ft | 521 kts | 91° |
| 2026-05-06 11:03 | 60.02664 | -30.76181 | 35240 ft | 522 kts | 91° |
| 2026-05-06 11:04 | 60.02193 | -30.61730 | 35204 ft | 522 kts | 91° |
| 2026-05-06 11:04 | 60.01707 | -30.47327 | 35198 ft | 523 kts | 91° |
| 2026-05-06 11:05 | 60.01203 | -30.32859 | 35167 ft | 523 kts | 92° |
| 2026-05-06 11:05 | 60.00687 | -30.18479 | 35292 ft | 523 kts | 91° |
| 2026-05-06 11:06 | 60.00143 | -30.03945 | 35234 ft | 525 kts | 93° |
| 2026-05-06 11:06 | 59.99346 | -29.89625 | 35197 ft | 526 kts | 95° |
| 2026-05-06 11:07 | 59.98474 | -29.75121 | 35217 ft | 525 kts | 94° |
| 2026-05-06 11:07 | 59.97593 | -29.60840 | 35190 ft | 526 kts | 94° |
| 2026-05-06 11:08 | 59.96680 | -29.46344 | 35284 ft | 527 kts | 95° |
| 2026-05-06 11:08 | 59.95753 | -29.31927 | 35210 ft | 524 kts | 96° |
| 2026-05-06 11:09 | 59.94806 | -29.17458 | 35203 ft | 527 kts | 96° |
| 2026-05-06 11:09 | 59.93848 | -29.03088 | 35250 ft | 528 kts | 95° |
| 2026-05-06 11:10 | 59.92878 | -28.88772 | 35221 ft | 528 kts | 95° |
| 2026-05-06 11:10 | 59.91884 | -28.74350 | 35169 ft | 528 kts | 96° |
| 2026-05-06 11:11 | 59.90875 | -28.59947 | 35209 ft | 529 kts | 96° |
| 2026-05-06 11:11 | 59.89851 | -28.45573 | 35145 ft | 530 kts | 96° |
| 2026-05-06 11:12 | 59.88805 | -28.31101 | 35155 ft | 529 kts | 96° |
| 2026-05-06 11:12 | 59.87747 | -28.16704 | 35174 ft | 531 kts | 97° |
| 2026-05-06 11:13 | 59.86668 | -28.02244 | 35185 ft | 531 kts | 97° |
| 2026-05-06 11:13 | 59.85572 | -27.87784 | 35243 ft | 529 kts | 97° |
| 2026-05-06 11:13 | 59.85020 | -27.80573 | 35122 ft | 532 kts | 96° |
| 2026-05-06 11:14 | 59.84460 | -27.73337 | 35261 ft | 530 kts | 97° |
| 2026-05-06 11:14 | 59.83901 | -27.66144 | 35160 ft | 532 kts | 96° |
| 2026-05-06 11:14 | 59.83338 | -27.58956 | 35165 ft | 531 kts | 96° |
| 2026-05-06 11:15 | 59.82193 | -27.44497 | 35173 ft | 531 kts | 96° |
| 2026-05-06 11:15 | 59.81037 | -27.30114 | 35099 ft | 531 kts | 97° |
| 2026-05-06 11:15 | 59.80452 | -27.22909 | 35269 ft | 531 kts | 98° |
| 2026-05-06 11:16 | 59.79857 | -27.15634 | 35063 ft | 534 kts | 97° |
| 2026-05-06 11:16 | 59.78666 | -27.01233 | 35138 ft | 530 kts | 97° |
| 2026-05-06 11:17 | 59.77455 | -26.86771 | 35090 ft | 535 kts | 97° |
| 2026-05-06 11:17 | 59.76225 | -26.72295 | 35142 ft | 533 kts | 98° |
| 2026-05-06 11:18 | 59.74980 | -26.57845 | 35164 ft | 534 kts | 97° |
| 2026-05-06 11:18 | 59.73717 | -26.43381 | 35115 ft | 534 kts | 97° |
| 2026-05-06 11:19 | 59.72446 | -26.29014 | 35058 ft | 535 kts | 98° |
| 2026-05-06 11:19 | 59.71154 | -26.14601 | 35180 ft | 535 kts | 99° |
| 2026-05-06 11:20 | 59.69845 | -26.00179 | 35188 ft | 534 kts | 98° |
| 2026-05-06 11:20 | 59.68517 | -25.85733 | 35086 ft | 539 kts | 98° |
| 2026-05-06 11:21 | 59.67169 | -25.71265 | 35091 ft | 536 kts | 99° |
| 2026-05-06 11:21 | 59.65815 | -25.56912 | 35041 ft | 537 kts | 98° |
| 2026-05-06 11:22 | 59.64438 | -25.42487 | 35185 ft | 535 kts | 99° |
| 2026-05-06 11:22 | 59.63748 | -25.35320 | 35064 ft | 539 kts | 99° |
| 2026-05-06 11:22 | 59.63045 | -25.28071 | 35067 ft | 536 kts | 99° |
| 2026-05-06 11:23 | 59.61629 | -25.13601 | 35064 ft | 538 kts | 99° |
| 2026-05-06 11:23 | 59.60207 | -24.99230 | 35083 ft | 541 kts | 100° |
| 2026-05-06 11:24 | 59.58757 | -24.84769 | 35026 ft | 539 kts | 99° |
| 2026-05-06 11:24 | 59.58036 | -24.77633 | 34908 ft | 538 kts | 99° |
| 2026-05-06 11:24 | 59.57317 | -24.70566 | 35060 ft | 533 kts | 99° |
| 2026-05-06 11:25 | 59.55833 | -24.56090 | 35034 ft | 543 kts | 100° |
| 2026-05-06 11:25 | 59.54343 | -24.41728 | 35015 ft | 538 kts | 99° |
| 2026-05-06 11:26 | 59.52839 | -24.27397 | 34993 ft | 540 kts | 101° |
| 2026-05-06 11:26 | 59.52079 | -24.20211 | 35116 ft | 540 kts | 101° |
| 2026-05-06 11:26 | 59.51320 | -24.13084 | 34966 ft | 543 kts | 101° |
| 2026-05-06 11:27 | 59.49764 | -23.98577 | 35012 ft | 544 kts | 101° |
| 2026-05-06 11:27 | 59.48207 | -23.84240 | 35017 ft | 539 kts | 101° |
| 2026-05-06 11:27 | 59.47427 | -23.77112 | 34872 ft | 542 kts | 101° |
| 2026-05-06 11:28 | 59.46633 | -23.69892 | 34991 ft | 543 kts | 101° |
| 2026-05-06 11:28 | 59.45031 | -23.55448 | 34971 ft | 545 kts | 101° |
| 2026-05-06 11:28 | 59.44230 | -23.48283 | 34746 ft | 542 kts | 101° |
| 2026-05-06 11:29 | 59.43411 | -23.41006 | 34886 ft | 540 kts | 101° |
| 2026-05-06 11:29 | 59.42601 | -23.33837 | 35033 ft | 540 kts | 102° |
| 2026-05-06 11:29 | 59.41795 | -23.26737 | 34862 ft | 546 kts | 102° |
| 2026-05-06 11:30 | 59.40134 | -23.12242 | 34923 ft | 544 kts | 102° |
| 2026-05-06 11:30 | 59.38463 | -22.97810 | 34864 ft | 545 kts | 102° |
| 2026-05-06 11:31 | 59.36790 | -22.83505 | 34892 ft | 544 kts | 102° |
| 2026-05-06 11:31 | 59.35101 | -22.69212 | 34966 ft | 542 kts | 102° |
| 2026-05-06 11:31 | 59.34242 | -22.62004 | 34745 ft | 542 kts | 102° |
| 2026-05-06 11:32 | 59.33384 | -22.54833 | 34927 ft | 544 kts | 102° |
| 2026-05-06 11:32 | 59.32526 | -22.47699 | 34794 ft | 543 kts | 102° |
| 2026-05-06 11:32 | 59.31666 | -22.40591 | 34903 ft | 540 kts | 102° |
| 2026-05-06 11:32 | 59.30804 | -22.33501 | 34746 ft | 543 kts | 103° |
| 2026-05-06 11:33 | 59.29905 | -22.26132 | 34763 ft | 548 kts | 103° |
| 2026-05-06 11:33 | 59.28154 | -22.11913 | 34716 ft | 542 kts | 103° |
| 2026-05-06 11:33 | 59.27276 | -22.04828 | 34912 ft | 541 kts | 103° |
| 2026-05-06 11:34 | 59.26365 | -21.97521 | 34655 ft | 546 kts | 104° |
| 2026-05-06 11:34 | 59.24601 | -21.83463 | 34773 ft | 541 kts | 103° |
| 2026-05-06 11:35 | 59.22797 | -21.69229 | 34791 ft | 548 kts | 103° |
| 2026-05-06 11:35 | 59.20980 | -21.55031 | 34604 ft | 544 kts | 103° |
| 2026-05-06 11:35 | 59.20069 | -21.47959 | 34832 ft | 543 kts | 103° |
| 2026-05-06 11:36 | 59.19142 | -21.40803 | 34702 ft | 552 kts | 103° |
| 2026-05-06 11:36 | 59.17269 | -21.26444 | 34716 ft | 547 kts | 104° |
| 2026-05-06 11:36 | 59.16340 | -21.19365 | 34507 ft | 551 kts | 104° |
| 2026-05-06 11:37 | 59.15382 | -21.12110 | 34814 ft | 548 kts | 105° |
| 2026-05-06 11:37 | 59.14426 | -21.04901 | 34700 ft | 552 kts | 105° |
| 2026-05-06 11:37 | 59.13469 | -20.97715 | 34740 ft | 552 kts | 105° |
| 2026-05-06 11:38 | 59.11549 | -20.83408 | 34630 ft | 552 kts | 104° |
| 2026-05-06 11:38 | 59.09610 | -20.69095 | 34687 ft | 554 kts | 105° |
| 2026-05-06 11:38 | 59.08631 | -20.61909 | 34464 ft | 553 kts | 105° |
| 2026-05-06 11:39 | 59.07655 | -20.54789 | 34687 ft | 554 kts | 105° |
| 2026-05-06 11:39 | 59.05667 | -20.40376 | 34619 ft | 551 kts | 105° |
| 2026-05-06 11:40 | 59.03677 | -20.26081 | 34684 ft | 559 kts | 106° |
| 2026-05-06 11:40 | 59.01663 | -20.11743 | 34651 ft | 556 kts | 106° |
| 2026-05-06 11:41 | 58.99582 | -19.97369 | 34627 ft | 556 kts | 107° |
| 2026-05-06 11:41 | 58.97429 | -19.83176 | 34674 ft | 556 kts | 107° |
| 2026-05-06 11:42 | 58.95235 | -19.68868 | 34710 ft | 556 kts | 107° |
| 2026-05-06 11:42 | 58.93038 | -19.54666 | 34653 ft | 556 kts | 107° |
| 2026-05-06 11:43 | 58.90818 | -19.40445 | 34637 ft | 557 kts | 107° |
| 2026-05-06 11:43 | 58.88599 | -19.26349 | 34742 ft | 555 kts | 108° |
| 2026-05-06 11:44 | 58.85235 | -19.05202 | 34648 ft | 555 kts | 108° |
| 2026-05-06 11:44 | 58.82960 | -18.91044 | 34705 ft | 555 kts | 108° |
| 2026-05-06 11:45 | 58.80674 | -18.76936 | 34735 ft | 555 kts | 108° |
| 2026-05-06 11:45 | 58.78382 | -18.62901 | 34736 ft | 553 kts | 108° |
| 2026-05-06 11:46 | 58.76083 | -18.48939 | 34743 ft | 552 kts | 108° |
| 2026-05-06 11:46 | 58.73754 | -18.34905 | 34756 ft | 556 kts | 109° |
| 2026-05-06 11:47 | 58.71419 | -18.20942 | 34725 ft | 553 kts | 109° |
| 2026-05-06 11:47 | 58.69062 | -18.06961 | 34705 ft | 553 kts | 109° |
| 2026-05-06 11:48 | 58.66706 | -17.93088 | 34804 ft | 554 kts | 109° |
| 2026-05-06 11:48 | 58.64322 | -17.79161 | 34726 ft | 555 kts | 109° |
| 2026-05-06 11:49 | 58.61904 | -17.65148 | 34778 ft | 555 kts | 109° |
| 2026-05-06 11:49 | 58.59504 | -17.51335 | 34800 ft | 555 kts | 109° |
| 2026-05-06 11:50 | 58.57062 | -17.37391 | 34789 ft | 556 kts | 109° |
| 2026-05-06 11:50 | 58.54643 | -17.23686 | 34841 ft | 556 kts | 109° |
| 2026-05-06 11:51 | 58.53397 | -17.16659 | 34735 ft | 556 kts | 110° |
| 2026-05-06 11:51 | 58.52173 | -17.09787 | 34787 ft | 554 kts | 110° |
| 2026-05-06 11:51 | 58.49716 | -16.96069 | 34821 ft | 556 kts | 110° |
| 2026-05-06 11:52 | 58.47215 | -16.82208 | 34818 ft | 556 kts | 110° |
| 2026-05-06 11:52 | 58.44715 | -16.68453 | 34794 ft | 558 kts | 110° |
| 2026-05-06 11:53 | 58.42175 | -16.54577 | 34823 ft | 556 kts | 109° |
| 2026-05-06 11:53 | 58.39655 | -16.40914 | 34792 ft | 559 kts | 109° |
| 2026-05-06 11:54 | 58.37107 | -16.27195 | 34799 ft | 558 kts | 110° |
| 2026-05-06 11:54 | 58.34548 | -16.13520 | 34809 ft | 559 kts | 110° |
| 2026-05-06 11:55 | 58.31932 | -15.99637 | 34811 ft | 560 kts | 110° |
| 2026-05-06 11:55 | 58.29334 | -15.85948 | 34811 ft | 558 kts | 111° |
| 2026-05-06 11:56 | 58.26725 | -15.72295 | 34779 ft | 559 kts | 111° |
| 2026-05-06 11:56 | 58.24082 | -15.58569 | 34802 ft | 559 kts | 110° |
| 2026-05-06 11:57 | 58.21438 | -15.44930 | 34812 ft | 559 kts | 110° |
| 2026-05-06 11:57 | 58.18809 | -15.31463 | 34774 ft | 560 kts | 111° |
| 2026-05-06 11:58 | 58.16132 | -15.17840 | 34814 ft | 558 kts | 111° |
| 2026-05-06 11:58 | 58.13443 | -15.04256 | 34807 ft | 559 kts | 111° |
| 2026-05-06 11:59 | 58.10724 | -14.90611 | 34833 ft | 561 kts | 111° |
| 2026-05-06 11:59 | 58.07999 | -14.77031 | 34828 ft | 559 kts | 111° |
| 2026-05-06 12:00 | 58.05249 | -14.63421 | 34858 ft | 560 kts | 110° |
| 2026-05-06 12:00 | 58.02526 | -14.50027 | 34827 ft | 560 kts | 111° |
| 2026-05-06 12:01 | 57.99761 | -14.36524 | 34826 ft | 559 kts | 111° |
| 2026-05-06 12:01 | 57.96968 | -14.22980 | 34854 ft | 561 kts | 111° |
| 2026-05-06 12:02 | 57.94149 | -14.09397 | 34866 ft | 560 kts | 111° |
| 2026-05-06 12:02 | 57.91371 | -13.96096 | 34858 ft | 560 kts | 111° |
| 2026-05-06 12:03 | 57.88528 | -13.82578 | 34863 ft | 559 kts | 111° |
| 2026-05-06 12:03 | 57.85695 | -13.69193 | 34870 ft | 561 kts | 111° |
| 2026-05-06 12:04 | 57.82827 | -13.55731 | 34901 ft | 559 kts | 111° |
| 2026-05-06 12:04 | 57.79993 | -13.42520 | 34901 ft | 560 kts | 111° |
| 2026-05-06 12:05 | 57.77094 | -13.29087 | 34884 ft | 556 kts | 111° |
| 2026-05-06 12:05 | 57.74218 | -13.15846 | 34874 ft | 560 kts | 112° |
| 2026-05-06 12:06 | 57.71286 | -13.02442 | 34899 ft | 559 kts | 112° |
| 2026-05-06 12:06 | 57.68382 | -12.89242 | 34888 ft | 556 kts | 111° |
| 2026-05-06 12:07 | 57.65438 | -12.75951 | 34900 ft | 554 kts | 111° |
| 2026-05-06 12:07 | 57.62543 | -12.62957 | 34896 ft | 557 kts | 111° |
| 2026-05-06 12:08 | 57.59566 | -12.49682 | 34880 ft | 553 kts | 111° |
| 2026-05-06 12:08 | 57.56636 | -12.36694 | 34891 ft | 553 kts | 111° |
| 2026-05-06 12:09 | 57.53634 | -12.23470 | 34887 ft | 556 kts | 112° |
| 2026-05-06 12:09 | 57.50655 | -12.10434 | 34889 ft | 552 kts | 112° |
| 2026-05-06 12:10 | 57.47670 | -11.97448 | 34904 ft | 554 kts | 112° |
| 2026-05-06 12:10 | 57.44662 | -11.84441 | 34878 ft | 553 kts | 112° |
| 2026-05-06 12:11 | 57.41658 | -11.71531 | 34909 ft | 550 kts | 112° |
| 2026-05-06 12:11 | 57.38639 | -11.58636 | 34937 ft | 549 kts | 111° |
| 2026-05-06 12:12 | 57.35597 | -11.45716 | 34907 ft | 550 kts | 112° |
| 2026-05-06 12:12 | 57.32577 | -11.32968 | 34938 ft | 550 kts | 112° |
| 2026-05-06 12:13 | 57.29516 | -11.20123 | 34929 ft | 546 kts | 112° |
| 2026-05-06 12:13 | 57.26465 | -11.07399 | 34985 ft | 547 kts | 112° |
| 2026-05-06 12:14 | 57.23396 | -10.94672 | 34941 ft | 542 kts | 112° |
| 2026-05-06 12:14 | 57.20338 | -10.82058 | 34972 ft | 548 kts | 112° |
| 2026-05-06 12:15 | 57.17227 | -10.69308 | 34942 ft | 540 kts | 112° |
| 2026-05-06 12:15 | 57.14172 | -10.56855 | 34982 ft | 541 kts | 112° |
| 2026-05-06 12:16 | 57.11062 | -10.44254 | 34988 ft | 538 kts | 113° |
| 2026-05-06 12:16 | 57.07944 | -10.31689 | 34986 ft | 540 kts | 113° |
| 2026-05-06 12:17 | 57.04838 | -10.19247 | 34920 ft | 535 kts | 114° |
| 2026-05-06 12:17 | 57.01733 | -10.06877 | 35012 ft | 540 kts | 114° |
| 2026-05-06 12:18 | 56.98695 | -9.94286 | 35001 ft | 534 kts | 107° |
| 2026-05-06 12:18 | 56.96838 | -9.81353 | 34990 ft | 531 kts | 101° |
| 2026-05-06 12:19 | 56.95034 | -9.68170 | 34999 ft | 530 kts | 101° |
| 2026-05-06 12:19 | 56.93154 | -9.55214 | 34992 ft | 531 kts | 104° |
| 2026-05-06 12:20 | 56.90022 | -9.42913 | 35127 ft | 538 kts | 120° |
| 2026-05-06 12:20 | 56.88089 | -9.37083 | 35584 ft | 534 kts | 120° |
| 2026-05-06 12:20 | 56.86149 | -9.31296 | 35781 ft | 529 kts | 121° |
| 2026-05-06 12:21 | 56.84236 | -9.25621 | 36043 ft | 527 kts | 122° |
| 2026-05-06 12:21 | 56.82286 | -9.19857 | 36250 ft | 527 kts | 122° |
| 2026-05-06 12:21 | 56.80382 | -9.14249 | 36440 ft | 529 kts | 122° |
| 2026-05-06 12:21 | 56.78470 | -9.08636 | 36753 ft | 528 kts | 122° |
| 2026-05-06 12:22 | 56.76550 | -9.03014 | 36969 ft | 528 kts | 122° |
| 2026-05-06 12:22 | 56.74598 | -8.97317 | 36985 ft | 529 kts | 122° |
| 2026-05-06 12:22 | 56.70723 | -8.86052 | 37032 ft | 527 kts | 122° |
| 2026-05-06 12:23 | 56.66851 | -8.74851 | 37029 ft | 524 kts | 122° |
| 2026-05-06 12:23 | 56.62986 | -8.63723 | 37008 ft | 526 kts | 122° |
| 2026-05-06 12:24 | 56.59088 | -8.52557 | 36993 ft | 524 kts | 122° |
| 2026-05-06 12:24 | 56.55208 | -8.41493 | 37006 ft | 521 kts | 122° |
| 2026-05-06 12:25 | 56.51307 | -8.30419 | 36999 ft | 521 kts | 123° |
| 2026-05-06 12:25 | 56.47400 | -8.19379 | 37021 ft | 522 kts | 123° |
| 2026-05-06 12:26 | 56.43492 | -8.08387 | 37005 ft | 520 kts | 123° |
| 2026-05-06 12:26 | 56.41536 | -8.02906 | 37189 ft | 520 kts | 123° |
| 2026-05-06 12:26 | 56.39604 | -7.97503 | 36819 ft | 520 kts | 123° |
| 2026-05-06 12:27 | 56.37645 | -7.92035 | 36977 ft | 517 kts | 123° |
| 2026-05-06 12:27 | 56.35650 | -7.86480 | 36969 ft | 521 kts | 123° |
| 2026-05-06 12:27 | 56.33691 | -7.81041 | 37254 ft | 521 kts | 123° |
| 2026-05-06 12:27 | 56.31733 | -7.75612 | 37194 ft | 521 kts | 123° |
| 2026-05-06 12:28 | 56.29787 | -7.70233 | 36894 ft | 517 kts | 123° |
| 2026-05-06 12:28 | 56.27795 | -7.64735 | 37015 ft | 517 kts | 123° |
| 2026-05-06 12:28 | 56.23887 | -7.53988 | 37226 ft | 519 kts | 123° |
| 2026-05-06 12:29 | 56.21915 | -7.48584 | 36800 ft | 520 kts | 122° |
| 2026-05-06 12:29 | 56.19888 | -7.43041 | 36937 ft | 510 kts | 122° |
| 2026-05-06 12:29 | 56.15994 | -7.32426 | 37003 ft | 517 kts | 123° |
| 2026-05-06 12:30 | 56.11985 | -7.21547 | 37014 ft | 516 kts | 123° |
| 2026-05-06 12:30 | 56.10032 | -7.16264 | 37205 ft | 516 kts | 123° |
| 2026-05-06 12:30 | 56.08054 | -7.10927 | 37055 ft | 516 kts | 123° |
| 2026-05-06 12:31 | 56.04083 | -7.00245 | 37007 ft | 511 kts | 123° |
| 2026-05-06 12:31 | 56.00169 | -6.89763 | 37019 ft | 515 kts | 123° |
| 2026-05-06 12:32 | 55.96137 | -6.79012 | 37043 ft | 513 kts | 123° |
| 2026-05-06 12:32 | 55.92223 | -6.68620 | 37032 ft | 512 kts | 123° |
| 2026-05-06 12:33 | 55.88167 | -6.57897 | 37021 ft | 511 kts | 123° |
| 2026-05-06 12:33 | 55.84238 | -6.47555 | 37042 ft | 508 kts | 123° |
| 2026-05-06 12:34 | 55.80235 | -6.37062 | 37050 ft | 511 kts | 123° |
| 2026-05-06 12:34 | 55.76227 | -6.26602 | 37047 ft | 509 kts | 124° |
| 2026-05-06 12:35 | 55.72204 | -6.16147 | 37043 ft | 508 kts | 124° |
| 2026-05-06 12:35 | 55.68230 | -6.05864 | 37045 ft | 509 kts | 124° |
| 2026-05-06 12:36 | 55.64181 | -5.95430 | 37046 ft | 509 kts | 124° |
| 2026-05-06 12:36 | 55.60209 | -5.85235 | 37044 ft | 509 kts | 124° |
| 2026-05-06 12:37 | 55.56148 | -5.74861 | 37051 ft | 508 kts | 124° |
| 2026-05-06 12:37 | 55.52162 | -5.64716 | 37049 ft | 506 kts | 124° |
| 2026-05-06 12:38 | 55.48090 | -5.54399 | 37043 ft | 506 kts | 124° |
| 2026-05-06 12:38 | 55.44109 | -5.44353 | 37052 ft | 504 kts | 124° |
| 2026-05-06 12:39 | 55.40026 | -5.34091 | 37049 ft | 505 kts | 125° |
| 2026-05-06 12:39 | 55.35989 | -5.23985 | 37033 ft | 504 kts | 125° |
| 2026-05-06 12:40 | 55.31930 | -5.13869 | 37038 ft | 504 kts | 126° |
| 2026-05-06 12:40 | 55.27917 | -5.03907 | 37043 ft | 504 kts | 126° |
| 2026-05-06 12:41 | 55.23833 | -4.93808 | 37044 ft | 504 kts | 126° |
| 2026-05-06 12:41 | 55.19799 | -4.83876 | 37034 ft | 504 kts | 126° |
| 2026-05-06 12:42 | 55.15803 | -4.73649 | 37037 ft | 502 kts | 118° |
| 2026-05-06 12:42 | 55.12828 | -4.62659 | 37035 ft | 502 kts | 114° |
| 2026-05-06 12:43 | 55.09926 | -4.51591 | 37036 ft | 501 kts | 114° |
| 2026-05-06 12:43 | 55.07021 | -4.40657 | 37033 ft | 501 kts | 114° |
| 2026-05-06 12:44 | 55.04042 | -4.29553 | 37023 ft | 500 kts | 115° |
| 2026-05-06 12:44 | 55.01082 | -4.18600 | 37033 ft | 501 kts | 115° |
| 2026-05-06 12:45 | 54.98073 | -4.07534 | 37037 ft | 502 kts | 115° |
| 2026-05-06 12:46 | 54.93588 | -3.91150 | 37047 ft | 501 kts | 115° |
| 2026-05-06 12:46 | 54.90578 | -3.80226 | 37043 ft | 501 kts | 116° |
| 2026-05-06 12:47 | 54.87513 | -3.69159 | 37042 ft | 500 kts | 116° |
| 2026-05-06 12:47 | 54.84473 | -3.58234 | 37036 ft | 500 kts | 116° |
| 2026-05-06 12:48 | 54.81429 | -3.47344 | 37036 ft | 499 kts | 116° |
| 2026-05-06 12:48 | 54.78379 | -3.36484 | 37039 ft | 500 kts | 116° |
| 2026-05-06 12:49 | 54.75225 | -3.25311 | 37025 ft | 500 kts | 117° |
| 2026-05-06 12:49 | 54.72181 | -3.14574 | 37027 ft | 499 kts | 117° |
| 2026-05-06 12:50 | 54.69063 | -3.03630 | 37009 ft | 499 kts | 117° |
| 2026-05-06 12:50 | 54.66006 | -2.92950 | 37013 ft | 499 kts | 117° |
| 2026-05-06 12:51 | 54.62920 | -2.82216 | 37015 ft | 499 kts | 117° |
| 2026-05-06 12:51 | 54.59842 | -2.71561 | 37013 ft | 499 kts | 117° |
| 2026-05-06 12:52 | 54.56731 | -2.60839 | 37017 ft | 499 kts | 117° |
| 2026-05-06 12:52 | 54.53621 | -2.50171 | 37008 ft | 499 kts | 117° |
| 2026-05-06 12:53 | 54.50505 | -2.39530 | 37008 ft | 498 kts | 117° |
| 2026-05-06 12:53 | 54.47376 | -2.28893 | 37015 ft | 498 kts | 118° |
| 2026-05-06 12:54 | 54.44196 | -2.18129 | 37001 ft | 499 kts | 118° |
| 2026-05-06 12:54 | 54.41081 | -2.07637 | 37016 ft | 498 kts | 118° |
| 2026-05-06 12:55 | 54.37899 | -1.96965 | 37066 ft | 498 kts | 118° |
| 2026-05-06 12:55 | 54.34733 | -1.86392 | 37088 ft | 498 kts | 118° |
| 2026-05-06 12:56 | 54.31554 | -1.75825 | 37065 ft | 496 kts | 118° |
| 2026-05-06 12:56 | 54.28413 | -1.65432 | 37066 ft | 498 kts | 118° |
| 2026-05-06 12:57 | 54.25187 | -1.54798 | 37066 ft | 497 kts | 118° |
| 2026-05-06 12:57 | 54.22022 | -1.44417 | 37055 ft | 496 kts | 118° |
| 2026-05-06 12:58 | 54.18773 | -1.33808 | 37061 ft | 496 kts | 119° |
| 2026-05-06 12:58 | 54.15593 | -1.23467 | 37070 ft | 496 kts | 119° |
| 2026-05-06 12:59 | 54.12362 | -1.13005 | 37062 ft | 495 kts | 120° |
| 2026-05-06 12:59 | 54.09182 | -1.02753 | 37038 ft | 494 kts | 119° |
| 2026-05-06 13:00 | 54.05912 | -0.92263 | 37050 ft | 495 kts | 120° |
| 2026-05-06 13:00 | 54.01850 | -0.83051 | 37058 ft | 490 kts | 138° |
| 2026-05-06 13:01 | 53.96489 | -0.75848 | 37032 ft | 486 kts | 146° |
| 2026-05-06 13:01 | 53.91034 | -0.69229 | 37047 ft | 487 kts | 147° |
| 2026-05-06 13:02 | 53.85370 | -0.62489 | 37021 ft | 484 kts | 147° |
| 2026-05-06 13:02 | 53.79852 | -0.56003 | 37066 ft | 487 kts | 147° |
| 2026-05-06 13:03 | 53.74226 | -0.49443 | 37041 ft | 486 kts | 147° |
| 2026-05-06 13:03 | 53.68672 | -0.43005 | 37083 ft | 486 kts | 147° |
| 2026-05-06 13:04 | 53.63029 | -0.36494 | 37080 ft | 484 kts | 147° |
| 2026-05-06 13:04 | 53.57695 | -0.29614 | 37058 ft | 486 kts | 137° |
| 2026-05-06 13:05 | 53.53341 | -0.20629 | 37086 ft | 491 kts | 129° |
| 2026-05-06 13:05 | 53.49251 | -0.11531 | 37059 ft | 489 kts | 129° |
| 2026-05-06 13:06 | 53.45052 | -0.02222 | 37084 ft | 490 kts | 129° |
| 2026-05-06 13:06 | 53.40977 | 0.06782 | 37061 ft | 488 kts | 129° |
| 2026-05-06 13:07 | 53.36812 | 0.15947 | 37046 ft | 488 kts | 129° |
| 2026-05-06 13:07 | 53.32727 | 0.24904 | 37024 ft | 488 kts | 129° |
| 2026-05-06 13:08 | 53.28617 | 0.33887 | 36999 ft | 487 kts | 129° |
| 2026-05-06 13:08 | 53.24509 | 0.42830 | 37015 ft | 488 kts | 129° |
| 2026-05-06 13:09 | 53.20316 | 0.51928 | 37007 ft | 488 kts | 129° |
| 2026-05-06 13:09 | 53.16185 | 0.60857 | 37007 ft | 488 kts | 129° |
| 2026-05-06 13:10 | 53.11963 | 0.69952 | 36986 ft | 488 kts | 130° |
| 2026-05-06 13:10 | 53.07844 | 0.78794 | 36983 ft | 487 kts | 130° |
| 2026-05-06 13:11 | 53.03641 | 0.87784 | 36969 ft | 486 kts | 130° |
| 2026-05-06 13:11 | 52.99529 | 0.96587 | 36968 ft | 487 kts | 127° |
| 2026-05-06 13:12 | 52.96365 | 1.06716 | 36956 ft | 489 kts | 112° |
| 2026-05-06 13:12 | 52.93991 | 1.17200 | 36975 ft | 490 kts | 111° |
| 2026-05-06 13:13 | 52.91561 | 1.27931 | 36985 ft | 490 kts | 111° |
| 2026-05-06 13:13 | 52.89119 | 1.38649 | 37008 ft | 491 kts | 111° |
| 2026-05-06 13:14 | 52.86615 | 1.49573 | 36996 ft | 490 kts | 111° |
| 2026-05-06 13:14 | 52.84175 | 1.60164 | 36699 ft | 487 kts | 111° |
| 2026-05-06 13:14 | 52.82955 | 1.65437 | 36929 ft | 487 kts | 112° |
| 2026-05-06 13:15 | 52.81715 | 1.70786 | 37262 ft | 492 kts | 112° |
| 2026-05-06 13:15 | 52.80490 | 1.76051 | 36834 ft | 494 kts | 112° |
| 2026-05-06 13:15 | 52.79265 | 1.81310 | 37087 ft | 491 kts | 112° |
| 2026-05-06 13:15 | 52.78034 | 1.86581 | 36640 ft | 488 kts | 112° |
| 2026-05-06 13:16 | 52.76797 | 1.91860 | 36705 ft | 487 kts | 112° |
| 2026-05-06 13:16 | 52.75581 | 1.97040 | 36920 ft | 488 kts | 112° |
| 2026-05-06 13:16 | 52.74353 | 2.02259 | 36944 ft | 493 kts | 112° |
| 2026-05-06 13:17 | 52.71842 | 2.12889 | 36948 ft | 491 kts | 112° |
| 2026-05-06 13:17 | 52.70607 | 2.18095 | 37240 ft | 490 kts | 112° |
| 2026-05-06 13:17 | 52.69364 | 2.23326 | 37102 ft | 492 kts | 112° |
| 2026-05-06 13:17 | 52.68113 | 2.28579 | 36986 ft | 488 kts | 112° |
| 2026-05-06 13:18 | 52.66859 | 2.33828 | 36961 ft | 484 kts | 112° |
| 2026-05-06 13:18 | 52.64385 | 2.44149 | 36956 ft | 488 kts | 112° |
| 2026-05-06 13:19 | 52.61855 | 2.54656 | 36962 ft | 488 kts | 112° |
| 2026-05-06 13:19 | 52.59377 | 2.64896 | 36965 ft | 486 kts | 112° |
| 2026-05-06 13:20 | 52.56797 | 2.75507 | 36953 ft | 487 kts | 113° |
| 2026-05-06 13:20 | 52.54438 | 2.85807 | 36941 ft | 487 kts | 106° |
| 2026-05-06 13:21 | 52.52802 | 2.96800 | 36941 ft | 488 kts | 104° |
| 2026-05-06 13:21 | 52.51236 | 3.07503 | 36944 ft | 486 kts | 104° |
| 2026-05-06 13:22 | 52.49615 | 3.18449 | 36939 ft | 487 kts | 104° |
| 2026-05-06 13:22 | 52.48025 | 3.29078 | 36931 ft | 488 kts | 104° |
| 2026-05-06 13:23 | 52.46382 | 3.39979 | 36935 ft | 486 kts | 104° |
| 2026-05-06 13:23 | 52.44759 | 3.50674 | 36929 ft | 487 kts | 104° |
| 2026-05-06 13:24 | 52.43115 | 3.61425 | 36948 ft | 487 kts | 105° |
| 2026-05-06 13:24 | 52.41436 | 3.72323 | 36917 ft | 485 kts | 105° |
| 2026-05-06 13:25 | 52.39752 | 3.83186 | 36917 ft | 485 kts | 105° |
| 2026-05-06 13:25 | 52.38093 | 3.93811 | 36911 ft | 486 kts | 105° |
| 2026-05-06 13:26 | 52.36381 | 4.04711 | 36917 ft | 485 kts | 105° |
| 2026-05-06 13:26 | 52.34707 | 4.15294 | 36919 ft | 485 kts | 105° |
| 2026-05-06 13:27 | 52.32948 | 4.26346 | 36906 ft | 485 kts | 105° |
| 2026-05-06 13:27 | 52.31224 | 4.37100 | 36902 ft | 485 kts | 105° |
| 2026-05-06 13:28 | 52.29482 | 4.47905 | 36891 ft | 485 kts | 105° |
| 2026-05-06 13:28 | 52.27749 | 4.58582 | 36899 ft | 484 kts | 105° |
| 2026-05-06 13:29 | 52.25980 | 4.69415 | 36884 ft | 484 kts | 107° |
| 2026-05-06 13:29 | 52.24189 | 4.80310 | 36881 ft | 483 kts | 106° |
| 2026-05-06 13:30 | 52.22425 | 4.90971 | 36887 ft | 484 kts | 107° |
| 2026-05-06 13:30 | 52.20658 | 5.01584 | 36890 ft | 484 kts | 107° |
| 2026-05-06 13:31 | 52.18865 | 5.12291 | 36856 ft | 483 kts | 107° |
| 2026-05-06 13:31 | 52.17092 | 5.22808 | 36858 ft | 485 kts | 107° |
| 2026-05-06 13:32 | 52.15285 | 5.33467 | 36863 ft | 484 kts | 107° |
| 2026-05-06 13:32 | 52.13497 | 5.43944 | 36868 ft | 483 kts | 107° |
| 2026-05-06 13:33 | 52.11661 | 5.54643 | 36871 ft | 485 kts | 107° |
| 2026-05-06 13:33 | 52.09856 | 5.65097 | 36873 ft | 485 kts | 108° |
| 2026-05-06 13:34 | 52.07925 | 5.75788 | 36874 ft | 484 kts | 112° |
| 2026-05-06 13:34 | 52.04577 | 5.85468 | 36900 ft | 480 kts | 130° |
| 2026-05-06 13:35 | 52.00039 | 5.93411 | 36850 ft | 477 kts | 136° |
| 2026-05-06 13:35 | 51.95379 | 6.01090 | 36889 ft | 477 kts | 136° |
| 2026-05-06 13:36 | 51.90685 | 6.08718 | 36867 ft | 476 kts | 137° |
| 2026-05-06 13:36 | 51.85822 | 6.16550 | 36877 ft | 477 kts | 137° |
| 2026-05-06 13:37 | 51.81055 | 6.24178 | 36856 ft | 477 kts | 137° |
| 2026-05-06 13:37 | 51.76328 | 6.31707 | 36856 ft | 478 kts | 137° |
| 2026-05-06 13:38 | 51.71601 | 6.39206 | 36841 ft | 478 kts | 137° |
| 2026-05-06 13:38 | 51.66862 | 6.46698 | 36869 ft | 477 kts | 137° |
| 2026-05-06 13:39 | 51.62094 | 6.54210 | 36844 ft | 476 kts | 137° |
| 2026-05-06 13:39 | 51.57379 | 6.61615 | 36863 ft | 477 kts | 137° |
| 2026-05-06 13:40 | 51.52476 | 6.69290 | 36884 ft | 477 kts | 138° |
| 2026-05-06 13:40 | 51.47581 | 6.76928 | 36843 ft | 476 kts | 138° |
| 2026-05-06 13:41 | 51.42828 | 6.84321 | 36851 ft | 477 kts | 138° |
| 2026-05-06 13:41 | 51.37990 | 6.91825 | 36877 ft | 477 kts | 138° |
| 2026-05-06 13:42 | 51.33231 | 6.99183 | 36837 ft | 477 kts | 138° |
| 2026-05-06 13:42 | 51.28390 | 7.06643 | 36867 ft | 478 kts | 138° |
| 2026-05-06 13:43 | 51.23628 | 7.13960 | 36838 ft | 477 kts | 138° |
| 2026-05-06 13:43 | 51.18820 | 7.21325 | 36800 ft | 478 kts | 138° |
| 2026-05-06 13:44 | 51.14055 | 7.28604 | 36801 ft | 476 kts | 138° |
| 2026-05-06 13:44 | 51.09232 | 7.35947 | 36800 ft | 476 kts | 138° |
| 2026-05-06 13:45 | 51.04509 | 7.43117 | 36803 ft | 476 kts | 138° |
| 2026-05-06 13:45 | 50.97263 | 7.54074 | 36793 ft | 476 kts | 139° |
| 2026-05-06 13:46 | 50.92522 | 7.61218 | 36794 ft | 476 kts | 139° |
| 2026-05-06 13:46 | 50.87601 | 7.68611 | 36789 ft | 475 kts | 140° |
| 2026-05-06 13:47 | 50.82673 | 7.75990 | 36784 ft | 474 kts | 140° |
| 2026-05-06 13:47 | 50.77745 | 7.83348 | 36780 ft | 474 kts | 140° |
| 2026-05-06 13:48 | 50.73014 | 7.90391 | 36776 ft | 473 kts | 140° |
| 2026-05-06 13:48 | 50.68158 | 7.97598 | 36782 ft | 473 kts | 140° |
| 2026-05-06 13:49 | 50.63410 | 8.04623 | 36783 ft | 474 kts | 140° |
| 2026-05-06 13:49 | 50.58253 | 8.11213 | 36788 ft | 469 kts | 149° |
| 2026-05-06 13:50 | 50.52835 | 8.16728 | 36778 ft | 468 kts | 150° |
| 2026-05-06 13:50 | 50.47279 | 8.22329 | 36778 ft | 468 kts | 150° |
| 2026-05-06 13:51 | 50.41873 | 8.27753 | 36786 ft | 469 kts | 150° |
| 2026-05-06 13:51 | 50.37414 | 8.32213 | 36784 ft | 468 kts | 150° |